<?xml version="1.0" encoding="UTF-8"?>
<gpx creator="Wikiloc - https://www.wikiloc.com" version="1.1" xmlns="http://www.topografix.com/GPX/1/1" xmlns:xsi="http://www.w3.org/2001/XMLSchema-instance" xsi:schemaLocation="http://www.topografix.com/GPX/1/1 http://www.topografix.com/GPX/1/1/gpx.xsd">
  <metadata>
    <name>Wikiloc - LIT TL 2026</name>
    <author>
      <name>RUNNER JOHN</name>
      <link href="https://www.wikiloc.com/wikiloc/user.do?id=6621205">
        <text>RUNNER JOHN on Wikiloc</text>
      </link>
    </author>
    <link href="https://www.wikiloc.com/trail-running-trails/lit-tl-2026-261852495">
      <text>LIT TL 2026 on Wikiloc</text>
    </link>
    <time>2026-04-29T22:45:23.838Z</time>
  </metadata>
  <trk>
    <name>LIT TL 2026 - Wikiloc</name>
    <cmt>Trilha circular a partir de Malveira, com passagem por: 
- Ermida nossa Senhora dos Remédios (1.1 km) 
- Monte de Santa Maria (21.6 km)</cmt>
    <desc>Trilha circular a partir de Malveira, com passagem por: 
- Ermida nossa Senhora dos Remédios (1.1 km) 
- Monte de Santa Maria (21.6 km)</desc>
    <trkseg>
      <trkpt lat="38.934049" lon="-9.257103">
        <ele>253.073</ele>
        <time>2026-04-29T22:53:40.821437380Z</time>
      </trkpt>
      <trkpt lat="38.934332" lon="-9.257430">
        <ele>259.085</ele>
        <time>2026-04-29T22:54:00.821442079Z</time>
      </trkpt>
      <trkpt lat="38.934459" lon="-9.257483">
        <ele>260.913</ele>
        <time>2026-04-29T22:54:20.821445966Z</time>
      </trkpt>
      <trkpt lat="38.934592" lon="-9.257448">
        <ele>262.009</ele>
        <time>2026-04-29T22:54:40.821449463Z</time>
      </trkpt>
      <trkpt lat="38.934729" lon="-9.257321">
        <ele>262.889</ele>
        <time>2026-04-29T22:55:00.821452839Z</time>
      </trkpt>
      <trkpt lat="38.934825" lon="-9.257150">
        <ele>261.573</ele>
        <time>2026-04-29T22:55:20.821455684Z</time>
      </trkpt>
      <trkpt lat="38.934859" lon="-9.256926">
        <ele>258.348</ele>
        <time>2026-04-29T22:55:40.821458379Z</time>
      </trkpt>
      <trkpt lat="38.934807" lon="-9.256750">
        <ele>255.645</ele>
        <time>2026-04-29T22:56:00.821461145Z</time>
      </trkpt>
      <trkpt lat="38.934380" lon="-9.256258">
        <ele>251.762</ele>
        <time>2026-04-29T22:56:20.821463850Z</time>
      </trkpt>
      <trkpt lat="38.934346" lon="-9.256030">
        <ele>251.159</ele>
        <time>2026-04-29T22:56:40.821466645Z</time>
      </trkpt>
      <trkpt lat="38.934325" lon="-9.255622">
        <ele>249.571</ele>
        <time>2026-04-29T22:57:00.821469380Z</time>
      </trkpt>
      <trkpt lat="38.934322" lon="-9.255433">
        <ele>248.096</ele>
        <time>2026-04-29T22:57:20.821472025Z</time>
      </trkpt>
      <trkpt lat="38.934257" lon="-9.255275">
        <ele>246.322</ele>
        <time>2026-04-29T22:57:40.821474650Z</time>
      </trkpt>
      <trkpt lat="38.934124" lon="-9.255135">
        <ele>245.684</ele>
        <time>2026-04-29T22:58:00.821477385Z</time>
      </trkpt>
      <trkpt lat="38.933889" lon="-9.255513">
        <ele>246.807</ele>
        <time>2026-04-29T22:58:20.821480130Z</time>
      </trkpt>
      <trkpt lat="38.933554" lon="-9.255979">
        <ele>247.617</ele>
        <time>2026-04-29T22:58:40.821482835Z</time>
      </trkpt>
      <trkpt lat="38.933288" lon="-9.256365">
        <ele>249.809</ele>
        <time>2026-04-29T22:59:00.821485590Z</time>
      </trkpt>
      <trkpt lat="38.933001" lon="-9.256782">
        <ele>253.650</ele>
        <time>2026-04-29T22:59:20.821488376Z</time>
      </trkpt>
      <trkpt lat="38.933015" lon="-9.256953">
        <ele>254.164</ele>
        <time>2026-04-29T22:59:40.825132365Z</time>
      </trkpt>
      <trkpt lat="38.933036" lon="-9.257172">
        <ele>255.529</ele>
        <time>2026-04-29T23:00:00.825138486Z</time>
      </trkpt>
      <trkpt lat="38.932899" lon="-9.257493">
        <ele>253.996</ele>
        <time>2026-04-29T23:00:20.825141843Z</time>
      </trkpt>
      <trkpt lat="38.932834" lon="-9.257651">
        <ele>253.713</ele>
        <time>2026-04-29T23:00:40.825144778Z</time>
      </trkpt>
      <trkpt lat="38.932790" lon="-9.257866">
        <ele>254.040</ele>
        <time>2026-04-29T23:01:00.825147874Z</time>
      </trkpt>
      <trkpt lat="38.932769" lon="-9.258081">
        <ele>254.082</ele>
        <time>2026-04-29T23:01:20.825150789Z</time>
      </trkpt>
      <trkpt lat="38.932578" lon="-9.258059">
        <ele>254.027</ele>
        <time>2026-04-29T23:01:40.825153555Z</time>
      </trkpt>
      <trkpt lat="38.932449" lon="-9.258668">
        <ele>249.413</ele>
        <time>2026-04-29T23:02:00.825156290Z</time>
      </trkpt>
      <trkpt lat="38.932404" lon="-9.258967">
        <ele>246.351</ele>
        <time>2026-04-29T23:02:20.825159856Z</time>
      </trkpt>
      <trkpt lat="38.932766" lon="-9.258967">
        <ele>246.201</ele>
        <time>2026-04-29T23:02:40.825163323Z</time>
      </trkpt>
      <trkpt lat="38.932814" lon="-9.260156">
        <ele>242.011</ele>
        <time>2026-04-29T23:03:00.825166539Z</time>
      </trkpt>
      <trkpt lat="38.932821" lon="-9.260639">
        <ele>243.709</ele>
        <time>2026-04-29T23:03:20.825169575Z</time>
      </trkpt>
      <trkpt lat="38.932790" lon="-9.261117">
        <ele>257.267</ele>
        <time>2026-04-29T23:03:40.825172390Z</time>
      </trkpt>
      <trkpt lat="38.932807" lon="-9.261297">
        <ele>263.021</ele>
        <time>2026-04-29T23:04:00.825175025Z</time>
      </trkpt>
      <trkpt lat="38.932851" lon="-9.261407">
        <ele>266.056</ele>
        <time>2026-04-29T23:04:20.825177630Z</time>
      </trkpt>
      <trkpt lat="38.932971" lon="-9.261416">
        <ele>265.833</ele>
        <time>2026-04-29T23:04:40.825180255Z</time>
      </trkpt>
      <trkpt lat="38.933097" lon="-9.261390">
        <ele>265.090</ele>
        <time>2026-04-29T23:05:00.825182960Z</time>
      </trkpt>
      <trkpt lat="38.933056" lon="-9.261442">
        <ele>266.117</ele>
        <time>2026-04-29T23:05:20.825185594Z</time>
      </trkpt>
      <trkpt lat="38.932882" lon="-9.261609">
        <ele>268.979</ele>
        <time>2026-04-29T23:05:40.825188219Z</time>
      </trkpt>
      <trkpt lat="38.932828" lon="-9.261802">
        <ele>270.764</ele>
        <time>2026-04-29T23:06:00.825190834Z</time>
      </trkpt>
      <trkpt lat="38.932763" lon="-9.262180">
        <ele>272.040</ele>
        <time>2026-04-29T23:06:20.825193499Z</time>
      </trkpt>
      <trkpt lat="38.932739" lon="-9.262640">
        <ele>273.111</ele>
        <time>2026-04-29T23:06:40.825196274Z</time>
      </trkpt>
      <trkpt lat="38.932725" lon="-9.262947">
        <ele>274.721</ele>
        <time>2026-04-29T23:07:00.825198919Z</time>
      </trkpt>
      <trkpt lat="38.932722" lon="-9.263158">
        <ele>275.903</ele>
        <time>2026-04-29T23:07:20.825201564Z</time>
      </trkpt>
      <trkpt lat="38.932780" lon="-9.263399">
        <ele>277.509</ele>
        <time>2026-04-29T23:07:40.825204259Z</time>
      </trkpt>
      <trkpt lat="38.932988" lon="-9.263646">
        <ele>281.543</ele>
        <time>2026-04-29T23:08:00.825206924Z</time>
      </trkpt>
      <trkpt lat="38.933261" lon="-9.263879">
        <ele>285.477</ele>
        <time>2026-04-29T23:08:20.825209509Z</time>
      </trkpt>
      <trkpt lat="38.933511" lon="-9.264125">
        <ele>289.822</ele>
        <time>2026-04-29T23:08:40.825212094Z</time>
      </trkpt>
      <trkpt lat="38.933720" lon="-9.264006">
        <ele>289.139</ele>
        <time>2026-04-29T23:09:00.825214709Z</time>
      </trkpt>
      <trkpt lat="38.933874" lon="-9.263905">
        <ele>288.146</ele>
        <time>2026-04-29T23:09:20.825217304Z</time>
      </trkpt>
      <trkpt lat="38.934265" lon="-9.263865">
        <ele>287.913</ele>
        <time>2026-04-29T23:09:40.825219919Z</time>
      </trkpt>
      <trkpt lat="38.934573" lon="-9.263944">
        <ele>289.565</ele>
        <time>2026-04-29T23:10:00.825222534Z</time>
      </trkpt>
      <trkpt lat="38.934894" lon="-9.264159">
        <ele>294.860</ele>
        <time>2026-04-29T23:10:20.825225229Z</time>
      </trkpt>
      <trkpt lat="38.935048" lon="-9.264296">
        <ele>296.866</ele>
        <time>2026-04-29T23:10:40.825245266Z</time>
      </trkpt>
      <trkpt lat="38.935123" lon="-9.264515">
        <ele>298.054</ele>
        <time>2026-04-29T23:11:00.825248162Z</time>
      </trkpt>
      <trkpt lat="38.935335" lon="-9.265121">
        <ele>295.956</ele>
        <time>2026-04-29T23:11:20.825250997Z</time>
      </trkpt>
      <trkpt lat="38.935519" lon="-9.265429">
        <ele>292.311</ele>
        <time>2026-04-29T23:11:40.825253792Z</time>
      </trkpt>
      <trkpt lat="38.935693" lon="-9.265710">
        <ele>288.709</ele>
        <time>2026-04-29T23:12:00.825256657Z</time>
      </trkpt>
      <trkpt lat="38.935874" lon="-9.265916">
        <ele>288.757</ele>
        <time>2026-04-29T23:12:20.825259453Z</time>
      </trkpt>
      <trkpt lat="38.935956" lon="-9.266017">
        <ele>287.451</ele>
        <time>2026-04-29T23:12:40.825262218Z</time>
      </trkpt>
      <trkpt lat="38.935932" lon="-9.266109">
        <ele>285.796</ele>
        <time>2026-04-29T23:13:00.825264983Z</time>
      </trkpt>
      <trkpt lat="38.935823" lon="-9.266197">
        <ele>283.313</ele>
        <time>2026-04-29T23:13:20.825267738Z</time>
      </trkpt>
      <trkpt lat="38.935779" lon="-9.266280">
        <ele>281.150</ele>
        <time>2026-04-29T23:13:40.825270574Z</time>
      </trkpt>
      <trkpt lat="38.935799" lon="-9.266346">
        <ele>280.327</ele>
        <time>2026-04-29T23:14:00.825273289Z</time>
      </trkpt>
      <trkpt lat="38.935895" lon="-9.266408">
        <ele>279.849</ele>
        <time>2026-04-29T23:14:20.825276084Z</time>
      </trkpt>
      <trkpt lat="38.936079" lon="-9.266509">
        <ele>278.344</ele>
        <time>2026-04-29T23:14:40.825278799Z</time>
      </trkpt>
      <trkpt lat="38.936223" lon="-9.266593">
        <ele>275.910</ele>
        <time>2026-04-29T23:15:00.825281584Z</time>
      </trkpt>
      <trkpt lat="38.936363" lon="-9.266592">
        <ele>275.087</ele>
        <time>2026-04-29T23:15:20.825284459Z</time>
      </trkpt>
      <trkpt lat="38.936465" lon="-9.266457">
        <ele>274.542</ele>
        <time>2026-04-29T23:15:40.825287235Z</time>
      </trkpt>
      <trkpt lat="38.936595" lon="-9.266158">
        <ele>275.726</ele>
        <time>2026-04-29T23:16:00.825290090Z</time>
      </trkpt>
      <trkpt lat="38.936694" lon="-9.266136">
        <ele>274.409</ele>
        <time>2026-04-29T23:16:20.825292855Z</time>
      </trkpt>
      <trkpt lat="38.936855" lon="-9.266198">
        <ele>271.890</ele>
        <time>2026-04-29T23:16:40.825295620Z</time>
      </trkpt>
      <trkpt lat="38.937081" lon="-9.266251">
        <ele>267.574</ele>
        <time>2026-04-29T23:17:00.825298355Z</time>
      </trkpt>
      <trkpt lat="38.937295" lon="-9.266285">
        <ele>263.339</ele>
        <time>2026-04-29T23:17:20.825301131Z</time>
      </trkpt>
      <trkpt lat="38.937452" lon="-9.266228">
        <ele>260.946</ele>
        <time>2026-04-29T23:17:40.825303916Z</time>
      </trkpt>
      <trkpt lat="38.937585" lon="-9.266202">
        <ele>260.233</ele>
        <time>2026-04-29T23:18:00.825306741Z</time>
      </trkpt>
      <trkpt lat="38.937647" lon="-9.266290">
        <ele>258.610</ele>
        <time>2026-04-29T23:18:20.825309536Z</time>
      </trkpt>
      <trkpt lat="38.937743" lon="-9.266461">
        <ele>255.542</ele>
        <time>2026-04-29T23:18:40.825312262Z</time>
      </trkpt>
      <trkpt lat="38.937859" lon="-9.266642">
        <ele>252.127</ele>
        <time>2026-04-29T23:19:00.825314927Z</time>
      </trkpt>
      <trkpt lat="38.938074" lon="-9.266831">
        <ele>250.853</ele>
        <time>2026-04-29T23:19:20.825317541Z</time>
      </trkpt>
      <trkpt lat="38.938343" lon="-9.267014">
        <ele>249.197</ele>
        <time>2026-04-29T23:19:40.825320196Z</time>
      </trkpt>
      <trkpt lat="38.938534" lon="-9.267172">
        <ele>248.223</ele>
        <time>2026-04-29T23:20:00.825322821Z</time>
      </trkpt>
      <trkpt lat="38.938657" lon="-9.267269">
        <ele>247.625</ele>
        <time>2026-04-29T23:20:20.825325426Z</time>
      </trkpt>
      <trkpt lat="38.938739" lon="-9.267313">
        <ele>247.009</ele>
        <time>2026-04-29T23:20:40.825328071Z</time>
      </trkpt>
      <trkpt lat="38.938979" lon="-9.267252">
        <ele>247.271</ele>
        <time>2026-04-29T23:21:00.825330656Z</time>
      </trkpt>
      <trkpt lat="38.939227" lon="-9.267146">
        <ele>248.415</ele>
        <time>2026-04-29T23:21:20.825333341Z</time>
      </trkpt>
      <trkpt lat="38.939361" lon="-9.266979">
        <ele>250.950</ele>
        <time>2026-04-29T23:21:40.825335966Z</time>
      </trkpt>
      <trkpt lat="38.939538" lon="-9.266817">
        <ele>252.057</ele>
        <time>2026-04-29T23:22:00.825338591Z</time>
      </trkpt>
      <trkpt lat="38.939723" lon="-9.266725">
        <ele>250.444</ele>
        <time>2026-04-29T23:22:20.825341166Z</time>
      </trkpt>
      <trkpt lat="38.939911" lon="-9.266764">
        <ele>248.951</ele>
        <time>2026-04-29T23:22:40.825343801Z</time>
      </trkpt>
      <trkpt lat="38.939942" lon="-9.266835">
        <ele>248.733</ele>
        <time>2026-04-29T23:23:00.825346455Z</time>
      </trkpt>
      <trkpt lat="38.939955" lon="-9.266966">
        <ele>248.838</ele>
        <time>2026-04-29T23:23:20.825349090Z</time>
      </trkpt>
      <trkpt lat="38.939887" lon="-9.267199">
        <ele>248.254</ele>
        <time>2026-04-29T23:23:40.825351765Z</time>
      </trkpt>
      <trkpt lat="38.939842" lon="-9.267269">
        <ele>247.718</ele>
        <time>2026-04-29T23:24:00.825354440Z</time>
      </trkpt>
      <trkpt lat="38.939829" lon="-9.267362">
        <ele>247.398</ele>
        <time>2026-04-29T23:24:20.825357146Z</time>
      </trkpt>
      <trkpt lat="38.939849" lon="-9.267419">
        <ele>247.517</ele>
        <time>2026-04-29T23:24:40.825359780Z</time>
      </trkpt>
      <trkpt lat="38.939925" lon="-9.267410">
        <ele>248.609</ele>
        <time>2026-04-29T23:25:00.825362435Z</time>
      </trkpt>
      <trkpt lat="38.940020" lon="-9.267463">
        <ele>250.113</ele>
        <time>2026-04-29T23:25:20.825365150Z</time>
      </trkpt>
      <trkpt lat="38.940061" lon="-9.267603">
        <ele>251.327</ele>
        <time>2026-04-29T23:25:40.825367825Z</time>
      </trkpt>
      <trkpt lat="38.940044" lon="-9.267836">
        <ele>252.162</ele>
        <time>2026-04-29T23:26:00.825370450Z</time>
      </trkpt>
      <trkpt lat="38.939726" lon="-9.268363">
        <ele>251.599</ele>
        <time>2026-04-29T23:26:20.825373065Z</time>
      </trkpt>
      <trkpt lat="38.939453" lon="-9.268871">
        <ele>254.996</ele>
        <time>2026-04-29T23:26:40.825375670Z</time>
      </trkpt>
      <trkpt lat="38.939238" lon="-9.269275">
        <ele>256.413</ele>
        <time>2026-04-29T23:27:00.825378265Z</time>
      </trkpt>
      <trkpt lat="38.939200" lon="-9.269393">
        <ele>257.095</ele>
        <time>2026-04-29T23:27:20.825380870Z</time>
      </trkpt>
      <trkpt lat="38.938941" lon="-9.269708">
        <ele>255.770</ele>
        <time>2026-04-29T23:27:40.825383505Z</time>
      </trkpt>
      <trkpt lat="38.938579" lon="-9.270209">
        <ele>255.996</ele>
        <time>2026-04-29T23:28:00.825386190Z</time>
      </trkpt>
      <trkpt lat="38.938306" lon="-9.270696">
        <ele>265.478</ele>
        <time>2026-04-29T23:28:20.825388935Z</time>
      </trkpt>
      <trkpt lat="38.938122" lon="-9.271029">
        <ele>273.733</ele>
        <time>2026-04-29T23:28:40.825391540Z</time>
      </trkpt>
      <trkpt lat="38.938009" lon="-9.271310">
        <ele>279.926</ele>
        <time>2026-04-29T23:29:00.825394235Z</time>
      </trkpt>
      <trkpt lat="38.937832" lon="-9.271565">
        <ele>283.509</ele>
        <time>2026-04-29T23:29:20.825396820Z</time>
      </trkpt>
      <trkpt lat="38.937815" lon="-9.271389">
        <ele>281.189</ele>
        <time>2026-04-29T23:29:40.825399435Z</time>
      </trkpt>
      <trkpt lat="38.937808" lon="-9.271231">
        <ele>278.183</ele>
        <time>2026-04-29T23:30:00.825407450Z</time>
      </trkpt>
      <trkpt lat="38.937719" lon="-9.271047">
        <ele>274.668</ele>
        <time>2026-04-29T23:30:20.825410185Z</time>
      </trkpt>
      <trkpt lat="38.937453" lon="-9.270674">
        <ele>270.765</ele>
        <time>2026-04-29T23:30:40.825412780Z</time>
      </trkpt>
      <trkpt lat="38.937409" lon="-9.270451">
        <ele>268.282</ele>
        <time>2026-04-29T23:31:00.825415384Z</time>
      </trkpt>
      <trkpt lat="38.937340" lon="-9.270188">
        <ele>265.179</ele>
        <time>2026-04-29T23:31:20.825418029Z</time>
      </trkpt>
      <trkpt lat="38.937228" lon="-9.270017">
        <ele>262.221</ele>
        <time>2026-04-29T23:31:40.825420624Z</time>
      </trkpt>
      <trkpt lat="38.937204" lon="-9.269881">
        <ele>258.036</ele>
        <time>2026-04-29T23:32:00.825423219Z</time>
      </trkpt>
      <trkpt lat="38.937133" lon="-9.269653">
        <ele>250.372</ele>
        <time>2026-04-29T23:32:20.825425824Z</time>
      </trkpt>
      <trkpt lat="38.936985" lon="-9.269398">
        <ele>241.881</ele>
        <time>2026-04-29T23:32:40.825428609Z</time>
      </trkpt>
      <trkpt lat="38.936914" lon="-9.269350">
        <ele>239.361</ele>
        <time>2026-04-29T23:33:00.825431354Z</time>
      </trkpt>
      <trkpt lat="38.936835" lon="-9.269363">
        <ele>237.917</ele>
        <time>2026-04-29T23:33:20.825433959Z</time>
      </trkpt>
      <trkpt lat="38.936555" lon="-9.269609">
        <ele>235.009</ele>
        <time>2026-04-29T23:33:40.825436584Z</time>
      </trkpt>
      <trkpt lat="38.936286" lon="-9.269925">
        <ele>232.590</ele>
        <time>2026-04-29T23:34:00.825439189Z</time>
      </trkpt>
      <trkpt lat="38.936099" lon="-9.270196">
        <ele>232.294</ele>
        <time>2026-04-29T23:34:20.825441784Z</time>
      </trkpt>
      <trkpt lat="38.935862" lon="-9.270593">
        <ele>228.979</ele>
        <time>2026-04-29T23:34:40.825444399Z</time>
      </trkpt>
      <trkpt lat="38.935429" lon="-9.271295">
        <ele>225.516</ele>
        <time>2026-04-29T23:35:00.825446994Z</time>
      </trkpt>
      <trkpt lat="38.935364" lon="-9.271374">
        <ele>225.273</ele>
        <time>2026-04-29T23:35:20.825449609Z</time>
      </trkpt>
      <trkpt lat="38.935211" lon="-9.271422">
        <ele>223.770</ele>
        <time>2026-04-29T23:35:40.825452284Z</time>
      </trkpt>
      <trkpt lat="38.935173" lon="-9.271558">
        <ele>225.162</ele>
        <time>2026-04-29T23:36:00.825454848Z</time>
      </trkpt>
      <trkpt lat="38.935187" lon="-9.271817">
        <ele>230.137</ele>
        <time>2026-04-29T23:36:20.825457393Z</time>
      </trkpt>
      <trkpt lat="38.935149" lon="-9.272016">
        <ele>234.313</ele>
        <time>2026-04-29T23:36:40.825460018Z</time>
      </trkpt>
      <trkpt lat="38.935043" lon="-9.272267">
        <ele>239.942</ele>
        <time>2026-04-29T23:37:00.825462743Z</time>
      </trkpt>
      <trkpt lat="38.934838" lon="-9.272517">
        <ele>243.422</ele>
        <time>2026-04-29T23:37:20.825465378Z</time>
      </trkpt>
      <trkpt lat="38.934702" lon="-9.272728">
        <ele>244.414</ele>
        <time>2026-04-29T23:37:40.825467993Z</time>
      </trkpt>
      <trkpt lat="38.934603" lon="-9.272912">
        <ele>243.909</ele>
        <time>2026-04-29T23:38:00.825470628Z</time>
      </trkpt>
      <trkpt lat="38.934504" lon="-9.273162">
        <ele>242.476</ele>
        <time>2026-04-29T23:38:20.825473273Z</time>
      </trkpt>
      <trkpt lat="38.934483" lon="-9.273293">
        <ele>242.120</ele>
        <time>2026-04-29T23:38:40.825475878Z</time>
      </trkpt>
      <trkpt lat="38.934538" lon="-9.273500">
        <ele>243.085</ele>
        <time>2026-04-29T23:39:00.825478523Z</time>
      </trkpt>
      <trkpt lat="38.934695" lon="-9.273671">
        <ele>247.462</ele>
        <time>2026-04-29T23:39:20.825481168Z</time>
      </trkpt>
      <trkpt lat="38.934794" lon="-9.273807">
        <ele>249.119</ele>
        <time>2026-04-29T23:39:40.825483772Z</time>
      </trkpt>
      <trkpt lat="38.934790" lon="-9.273921">
        <ele>248.546</ele>
        <time>2026-04-29T23:40:00.825486417Z</time>
      </trkpt>
      <trkpt lat="38.934647" lon="-9.274127">
        <ele>246.618</ele>
        <time>2026-04-29T23:40:20.825489052Z</time>
      </trkpt>
      <trkpt lat="38.934448" lon="-9.274286">
        <ele>245.513</ele>
        <time>2026-04-29T23:40:40.825491657Z</time>
      </trkpt>
      <trkpt lat="38.934302" lon="-9.274444">
        <ele>246.919</ele>
        <time>2026-04-29T23:41:00.825494282Z</time>
      </trkpt>
      <trkpt lat="38.934250" lon="-9.274606">
        <ele>248.984</ele>
        <time>2026-04-29T23:41:20.825496967Z</time>
      </trkpt>
      <trkpt lat="38.934213" lon="-9.274843">
        <ele>251.407</ele>
        <time>2026-04-29T23:41:40.825499592Z</time>
      </trkpt>
      <trkpt lat="38.934141" lon="-9.275168">
        <ele>251.617</ele>
        <time>2026-04-29T23:42:00.825502257Z</time>
      </trkpt>
      <trkpt lat="38.934177" lon="-9.275227">
        <ele>252.209</ele>
        <time>2026-04-29T23:42:20.825504882Z</time>
      </trkpt>
      <trkpt lat="38.934358" lon="-9.275121">
        <ele>255.840</ele>
        <time>2026-04-29T23:42:40.825507507Z</time>
      </trkpt>
      <trkpt lat="38.934651" lon="-9.274893">
        <ele>259.744</ele>
        <time>2026-04-29T23:43:00.825510102Z</time>
      </trkpt>
      <trkpt lat="38.934839" lon="-9.274744">
        <ele>261.399</ele>
        <time>2026-04-29T23:43:20.825512717Z</time>
      </trkpt>
      <trkpt lat="38.935044" lon="-9.274599">
        <ele>262.776</ele>
        <time>2026-04-29T23:43:40.825515321Z</time>
      </trkpt>
      <trkpt lat="38.935276" lon="-9.274551">
        <ele>266.063</ele>
        <time>2026-04-29T23:44:00.825517906Z</time>
      </trkpt>
      <trkpt lat="38.935451" lon="-9.274476">
        <ele>268.980</ele>
        <time>2026-04-29T23:44:20.825520531Z</time>
      </trkpt>
      <trkpt lat="38.935611" lon="-9.274375">
        <ele>271.652</ele>
        <time>2026-04-29T23:44:40.825523216Z</time>
      </trkpt>
      <trkpt lat="38.935727" lon="-9.274217">
        <ele>273.177</ele>
        <time>2026-04-29T23:45:00.825525801Z</time>
      </trkpt>
      <trkpt lat="38.935878" lon="-9.274059">
        <ele>274.423</ele>
        <time>2026-04-29T23:45:20.825528456Z</time>
      </trkpt>
      <trkpt lat="38.935939" lon="-9.274125">
        <ele>274.223</ele>
        <time>2026-04-29T23:45:40.825531181Z</time>
      </trkpt>
      <trkpt lat="38.935977" lon="-9.274287">
        <ele>273.383</ele>
        <time>2026-04-29T23:46:00.825533896Z</time>
      </trkpt>
      <trkpt lat="38.936018" lon="-9.274445">
        <ele>272.311</ele>
        <time>2026-04-29T23:46:20.825536661Z</time>
      </trkpt>
      <trkpt lat="38.936055" lon="-9.274656">
        <ele>269.909</ele>
        <time>2026-04-29T23:46:40.825539316Z</time>
      </trkpt>
      <trkpt lat="38.936178" lon="-9.274784">
        <ele>267.154</ele>
        <time>2026-04-29T23:47:00.825541871Z</time>
      </trkpt>
      <trkpt lat="38.936489" lon="-9.274999">
        <ele>259.928</ele>
        <time>2026-04-29T23:47:20.825544486Z</time>
      </trkpt>
      <trkpt lat="38.936584" lon="-9.274995">
        <ele>259.033</ele>
        <time>2026-04-29T23:47:40.825547091Z</time>
      </trkpt>
      <trkpt lat="38.936660" lon="-9.274938">
        <ele>259.490</ele>
        <time>2026-04-29T23:48:00.825550327Z</time>
      </trkpt>
      <trkpt lat="38.936701" lon="-9.274802">
        <ele>262.297</ele>
        <time>2026-04-29T23:48:20.825554395Z</time>
      </trkpt>
      <trkpt lat="38.936769" lon="-9.274582">
        <ele>266.574</ele>
        <time>2026-04-29T23:48:40.825558693Z</time>
      </trkpt>
      <trkpt lat="38.936885" lon="-9.274275">
        <ele>271.316</ele>
        <time>2026-04-29T23:49:00.825563071Z</time>
      </trkpt>
      <trkpt lat="38.937035" lon="-9.274020">
        <ele>275.261</ele>
        <time>2026-04-29T23:49:20.825566086Z</time>
      </trkpt>
      <trkpt lat="38.937209" lon="-9.273765">
        <ele>278.867</ele>
        <time>2026-04-29T23:49:40.825573581Z</time>
      </trkpt>
      <trkpt lat="38.937414" lon="-9.273576">
        <ele>282.598</ele>
        <time>2026-04-29T23:50:00.825576356Z</time>
      </trkpt>
      <trkpt lat="38.937592" lon="-9.273418">
        <ele>284.315</ele>
        <time>2026-04-29T23:50:20.825579081Z</time>
      </trkpt>
      <trkpt lat="38.937719" lon="-9.273365">
        <ele>285.426</ele>
        <time>2026-04-29T23:50:40.825581826Z</time>
      </trkpt>
      <trkpt lat="38.937892" lon="-9.273419">
        <ele>286.909</ele>
        <time>2026-04-29T23:51:00.825584461Z</time>
      </trkpt>
      <trkpt lat="38.938109" lon="-9.273606">
        <ele>289.241</ele>
        <time>2026-04-29T23:51:20.825587066Z</time>
      </trkpt>
      <trkpt lat="38.938283" lon="-9.273763">
        <ele>287.125</ele>
        <time>2026-04-29T23:51:40.825589901Z</time>
      </trkpt>
      <trkpt lat="38.938489" lon="-9.273830">
        <ele>284.890</ele>
        <time>2026-04-29T23:52:00.825592536Z</time>
      </trkpt>
      <trkpt lat="38.938668" lon="-9.273731">
        <ele>284.167</ele>
        <time>2026-04-29T23:52:20.825595141Z</time>
      </trkpt>
      <trkpt lat="38.938805" lon="-9.273575">
        <ele>283.274</ele>
        <time>2026-04-29T23:52:40.825597786Z</time>
      </trkpt>
      <trkpt lat="38.938907" lon="-9.273241">
        <ele>284.651</ele>
        <time>2026-04-29T23:53:00.825600391Z</time>
      </trkpt>
      <trkpt lat="38.939014" lon="-9.272829">
        <ele>288.013</ele>
        <time>2026-04-29T23:53:20.825603016Z</time>
      </trkpt>
      <trkpt lat="38.939138" lon="-9.272510">
        <ele>291.158</ele>
        <time>2026-04-29T23:53:40.825605620Z</time>
      </trkpt>
      <trkpt lat="38.939276" lon="-9.272630">
        <ele>285.764</ele>
        <time>2026-04-29T23:54:00.825608326Z</time>
      </trkpt>
      <trkpt lat="38.939585" lon="-9.273015">
        <ele>273.424</ele>
        <time>2026-04-29T23:54:20.825611031Z</time>
      </trkpt>
      <trkpt lat="38.939940" lon="-9.273435">
        <ele>256.604</ele>
        <time>2026-04-29T23:54:40.825613645Z</time>
      </trkpt>
      <trkpt lat="38.940172" lon="-9.273817">
        <ele>248.414</ele>
        <time>2026-04-29T23:55:00.825616290Z</time>
      </trkpt>
      <trkpt lat="38.940476" lon="-9.274247">
        <ele>241.009</ele>
        <time>2026-04-29T23:55:20.825618915Z</time>
      </trkpt>
      <trkpt lat="38.940506" lon="-9.274339">
        <ele>240.034</ele>
        <time>2026-04-29T23:55:40.825621640Z</time>
      </trkpt>
      <trkpt lat="38.940344" lon="-9.274490">
        <ele>238.458</ele>
        <time>2026-04-29T23:56:00.825624295Z</time>
      </trkpt>
      <trkpt lat="38.940287" lon="-9.274646">
        <ele>236.153</ele>
        <time>2026-04-29T23:56:20.825626900Z</time>
      </trkpt>
      <trkpt lat="38.940388" lon="-9.274740">
        <ele>235.740</ele>
        <time>2026-04-29T23:56:40.825629565Z</time>
      </trkpt>
      <trkpt lat="38.940496" lon="-9.274971">
        <ele>235.317</ele>
        <time>2026-04-29T23:57:00.825632280Z</time>
      </trkpt>
      <trkpt lat="38.940648" lon="-9.275140">
        <ele>236.514</ele>
        <time>2026-04-29T23:57:20.825634925Z</time>
      </trkpt>
      <trkpt lat="38.940758" lon="-9.275274">
        <ele>237.986</ele>
        <time>2026-04-29T23:57:40.825637510Z</time>
      </trkpt>
      <trkpt lat="38.940860" lon="-9.275498">
        <ele>241.021</ele>
        <time>2026-04-29T23:58:00.825640165Z</time>
      </trkpt>
      <trkpt lat="38.941020" lon="-9.275661">
        <ele>245.057</ele>
        <time>2026-04-29T23:58:20.825642860Z</time>
      </trkpt>
      <trkpt lat="38.941421" lon="-9.275901">
        <ele>248.712</ele>
        <time>2026-04-29T23:58:40.825645625Z</time>
      </trkpt>
      <trkpt lat="38.941528" lon="-9.275654">
        <ele>249.332</ele>
        <time>2026-04-29T23:59:00.825648340Z</time>
      </trkpt>
      <trkpt lat="38.941691" lon="-9.275350">
        <ele>254.105</ele>
        <time>2026-04-29T23:59:20.825651015Z</time>
      </trkpt>
      <trkpt lat="38.941802" lon="-9.275182">
        <ele>255.909</ele>
        <time>2026-04-29T23:59:40.825653630Z</time>
      </trkpt>
      <trkpt lat="38.942097" lon="-9.275020">
        <ele>258.863</ele>
        <time>2026-04-30T00:00:00.825656285Z</time>
      </trkpt>
      <trkpt lat="38.942308" lon="-9.274861">
        <ele>260.477</ele>
        <time>2026-04-30T00:00:20.825660433Z</time>
      </trkpt>
      <trkpt lat="38.942437" lon="-9.274709">
        <ele>261.022</ele>
        <time>2026-04-30T00:00:40.825663248Z</time>
      </trkpt>
      <trkpt lat="38.942524" lon="-9.274494">
        <ele>261.759</ele>
        <time>2026-04-30T00:01:00.825665853Z</time>
      </trkpt>
      <trkpt lat="38.942617" lon="-9.274256">
        <ele>263.566</ele>
        <time>2026-04-30T00:01:20.825668418Z</time>
      </trkpt>
      <trkpt lat="38.942718" lon="-9.274043">
        <ele>265.093</ele>
        <time>2026-04-30T00:01:40.825671013Z</time>
      </trkpt>
      <trkpt lat="38.942919" lon="-9.273861">
        <ele>266.235</ele>
        <time>2026-04-30T00:02:00.825673648Z</time>
      </trkpt>
      <trkpt lat="38.943166" lon="-9.273629">
        <ele>267.640</ele>
        <time>2026-04-30T00:02:20.825676283Z</time>
      </trkpt>
      <trkpt lat="38.943434" lon="-9.273357">
        <ele>268.776</ele>
        <time>2026-04-30T00:02:40.825678928Z</time>
      </trkpt>
      <trkpt lat="38.943732" lon="-9.273055">
        <ele>267.264</ele>
        <time>2026-04-30T00:03:00.825681613Z</time>
      </trkpt>
      <trkpt lat="38.943975" lon="-9.272735">
        <ele>267.906</ele>
        <time>2026-04-30T00:03:20.825684278Z</time>
      </trkpt>
      <trkpt lat="38.944126" lon="-9.272451">
        <ele>269.716</ele>
        <time>2026-04-30T00:03:40.825686883Z</time>
      </trkpt>
      <trkpt lat="38.944211" lon="-9.272168">
        <ele>271.009</ele>
        <time>2026-04-30T00:04:00.825689608Z</time>
      </trkpt>
      <trkpt lat="38.944303" lon="-9.271716">
        <ele>270.258</ele>
        <time>2026-04-30T00:04:20.825692253Z</time>
      </trkpt>
      <trkpt lat="38.944418" lon="-9.271093">
        <ele>275.562</ele>
        <time>2026-04-30T00:04:40.825694978Z</time>
      </trkpt>
      <trkpt lat="38.944480" lon="-9.270681">
        <ele>277.547</ele>
        <time>2026-04-30T00:05:00.825697593Z</time>
      </trkpt>
      <trkpt lat="38.944446" lon="-9.270393">
        <ele>277.664</ele>
        <time>2026-04-30T00:05:20.825700217Z</time>
      </trkpt>
      <trkpt lat="38.944486" lon="-9.270213">
        <ele>278.291</ele>
        <time>2026-04-30T00:05:40.825702792Z</time>
      </trkpt>
      <trkpt lat="38.944555" lon="-9.270068">
        <ele>278.868</ele>
        <time>2026-04-30T00:06:00.825705397Z</time>
      </trkpt>
      <trkpt lat="38.944498" lon="-9.269887">
        <ele>279.940</ele>
        <time>2026-04-30T00:06:20.825708022Z</time>
      </trkpt>
      <trkpt lat="38.944306" lon="-9.269680">
        <ele>283.895</ele>
        <time>2026-04-30T00:06:40.825710707Z</time>
      </trkpt>
      <trkpt lat="38.944166" lon="-9.269616">
        <ele>285.661</ele>
        <time>2026-04-30T00:07:00.825713402Z</time>
      </trkpt>
      <trkpt lat="38.943845" lon="-9.269284">
        <ele>288.114</ele>
        <time>2026-04-30T00:07:20.825716147Z</time>
      </trkpt>
      <trkpt lat="38.943556" lon="-9.268900">
        <ele>284.154</ele>
        <time>2026-04-30T00:07:40.825718953Z</time>
      </trkpt>
      <trkpt lat="38.943316" lon="-9.268667">
        <ele>282.809</ele>
        <time>2026-04-30T00:08:00.825721587Z</time>
      </trkpt>
      <trkpt lat="38.943141" lon="-9.268353">
        <ele>283.609</ele>
        <time>2026-04-30T00:08:20.825724242Z</time>
      </trkpt>
      <trkpt lat="38.943028" lon="-9.268104">
        <ele>281.833</ele>
        <time>2026-04-30T00:08:40.825726877Z</time>
      </trkpt>
      <trkpt lat="38.942992" lon="-9.267876">
        <ele>282.837</ele>
        <time>2026-04-30T00:09:00.825734051Z</time>
      </trkpt>
      <trkpt lat="38.943001" lon="-9.267751">
        <ele>283.452</ele>
        <time>2026-04-30T00:09:20.825736736Z</time>
      </trkpt>
      <trkpt lat="38.943127" lon="-9.267595">
        <ele>281.689</ele>
        <time>2026-04-30T00:09:40.825739341Z</time>
      </trkpt>
      <trkpt lat="38.943194" lon="-9.267452">
        <ele>280.746</ele>
        <time>2026-04-30T00:10:00.825741966Z</time>
      </trkpt>
      <trkpt lat="38.943257" lon="-9.267246">
        <ele>279.093</ele>
        <time>2026-04-30T00:10:20.825744580Z</time>
      </trkpt>
      <trkpt lat="38.943306" lon="-9.267127">
        <ele>278.065</ele>
        <time>2026-04-30T00:10:40.825747195Z</time>
      </trkpt>
      <trkpt lat="38.943326" lon="-9.267014">
        <ele>278.550</ele>
        <time>2026-04-30T00:11:00.825749890Z</time>
      </trkpt>
      <trkpt lat="38.943270" lon="-9.266503">
        <ele>284.566</ele>
        <time>2026-04-30T00:11:20.825752515Z</time>
      </trkpt>
      <trkpt lat="38.943782" lon="-9.266086">
        <ele>284.498</ele>
        <time>2026-04-30T00:11:40.825755250Z</time>
      </trkpt>
      <trkpt lat="38.944100" lon="-9.265874">
        <ele>284.115</ele>
        <time>2026-04-30T00:12:00.825757915Z</time>
      </trkpt>
      <trkpt lat="38.944343" lon="-9.265817">
        <ele>282.626</ele>
        <time>2026-04-30T00:12:20.825760530Z</time>
      </trkpt>
      <trkpt lat="38.944790" lon="-9.265807">
        <ele>283.609</ele>
        <time>2026-04-30T00:12:40.825763155Z</time>
      </trkpt>
      <trkpt lat="38.945070" lon="-9.265895">
        <ele>285.751</ele>
        <time>2026-04-30T00:13:00.825765830Z</time>
      </trkpt>
      <trkpt lat="38.945364" lon="-9.266008">
        <ele>286.745</ele>
        <time>2026-04-30T00:13:20.825768455Z</time>
      </trkpt>
      <trkpt lat="38.945715" lon="-9.266060">
        <ele>288.380</ele>
        <time>2026-04-30T00:13:40.825771160Z</time>
      </trkpt>
      <trkpt lat="38.946043" lon="-9.265924">
        <ele>290.977</ele>
        <time>2026-04-30T00:14:00.825773805Z</time>
      </trkpt>
      <trkpt lat="38.946416" lon="-9.265726">
        <ele>291.844</ele>
        <time>2026-04-30T00:14:20.825776410Z</time>
      </trkpt>
      <trkpt lat="38.946546" lon="-9.265682">
        <ele>291.251</ele>
        <time>2026-04-30T00:14:40.825779035Z</time>
      </trkpt>
      <trkpt lat="38.946726" lon="-9.265607">
        <ele>290.333</ele>
        <time>2026-04-30T00:15:00.825781620Z</time>
      </trkpt>
      <trkpt lat="38.946856" lon="-9.265461">
        <ele>288.468</ele>
        <time>2026-04-30T00:15:20.825784235Z</time>
      </trkpt>
      <trkpt lat="38.946955" lon="-9.265417">
        <ele>287.324</ele>
        <time>2026-04-30T00:15:40.825786840Z</time>
      </trkpt>
      <trkpt lat="38.947092" lon="-9.265452">
        <ele>285.574</ele>
        <time>2026-04-30T00:16:00.825789535Z</time>
      </trkpt>
      <trkpt lat="38.947287" lon="-9.265619">
        <ele>282.456</ele>
        <time>2026-04-30T00:16:20.825792240Z</time>
      </trkpt>
      <trkpt lat="38.947472" lon="-9.265729">
        <ele>278.521</ele>
        <time>2026-04-30T00:16:40.825794905Z</time>
      </trkpt>
      <trkpt lat="38.947594" lon="-9.265793">
        <ele>276.609</ele>
        <time>2026-04-30T00:17:00.825797560Z</time>
      </trkpt>
      <trkpt lat="38.948205" lon="-9.266025">
        <ele>269.759</ele>
        <time>2026-04-30T00:17:20.825800134Z</time>
      </trkpt>
      <trkpt lat="38.948639" lon="-9.266148">
        <ele>273.813</ele>
        <time>2026-04-30T00:17:40.825802709Z</time>
      </trkpt>
      <trkpt lat="38.948802" lon="-9.266160">
        <ele>275.058</ele>
        <time>2026-04-30T00:18:00.825805344Z</time>
      </trkpt>
      <trkpt lat="38.949096" lon="-9.266028">
        <ele>273.165</ele>
        <time>2026-04-30T00:18:20.825808089Z</time>
      </trkpt>
      <trkpt lat="38.949414" lon="-9.266243">
        <ele>269.742</ele>
        <time>2026-04-30T00:18:40.825810734Z</time>
      </trkpt>
      <trkpt lat="38.950092" lon="-9.266610">
        <ele>257.129</ele>
        <time>2026-04-30T00:19:00.825813339Z</time>
      </trkpt>
      <trkpt lat="38.950461" lon="-9.266882">
        <ele>254.231</ele>
        <time>2026-04-30T00:19:20.825815954Z</time>
      </trkpt>
      <trkpt lat="38.950762" lon="-9.267189">
        <ele>253.766</ele>
        <time>2026-04-30T00:19:40.825818549Z</time>
      </trkpt>
      <trkpt lat="38.951147" lon="-9.267689">
        <ele>255.342</ele>
        <time>2026-04-30T00:20:00.825821194Z</time>
      </trkpt>
      <trkpt lat="38.951356" lon="-9.267965">
        <ele>255.352</ele>
        <time>2026-04-30T00:20:20.825823879Z</time>
      </trkpt>
      <trkpt lat="38.951571" lon="-9.268303">
        <ele>253.753</ele>
        <time>2026-04-30T00:20:40.825826544Z</time>
      </trkpt>
      <trkpt lat="38.951858" lon="-9.268816">
        <ele>251.208</ele>
        <time>2026-04-30T00:21:00.825829229Z</time>
      </trkpt>
      <trkpt lat="38.952123" lon="-9.269206">
        <ele>254.909</ele>
        <time>2026-04-30T00:21:20.825831864Z</time>
      </trkpt>
      <trkpt lat="38.952160" lon="-9.269229">
        <ele>255.367</ele>
        <time>2026-04-30T00:21:40.825834479Z</time>
      </trkpt>
      <trkpt lat="38.952189" lon="-9.269264">
        <ele>255.691</ele>
        <time>2026-04-30T00:22:00.825837124Z</time>
      </trkpt>
      <trkpt lat="38.952200" lon="-9.269315">
        <ele>255.746</ele>
        <time>2026-04-30T00:22:20.825839789Z</time>
      </trkpt>
      <trkpt lat="38.952211" lon="-9.269348">
        <ele>255.913</ele>
        <time>2026-04-30T00:22:40.825842394Z</time>
      </trkpt>
      <trkpt lat="38.952233" lon="-9.269372">
        <ele>256.090</ele>
        <time>2026-04-30T00:23:00.825845008Z</time>
      </trkpt>
      <trkpt lat="38.952243" lon="-9.269388">
        <ele>255.967</ele>
        <time>2026-04-30T00:23:20.825847603Z</time>
      </trkpt>
      <trkpt lat="38.952302" lon="-9.269410">
        <ele>255.739</ele>
        <time>2026-04-30T00:23:40.825850278Z</time>
      </trkpt>
      <trkpt lat="38.952374" lon="-9.269467">
        <ele>255.374</ele>
        <time>2026-04-30T00:24:00.825852873Z</time>
      </trkpt>
      <trkpt lat="38.952432" lon="-9.269516">
        <ele>254.960</ele>
        <time>2026-04-30T00:24:20.825855488Z</time>
      </trkpt>
      <trkpt lat="38.952467" lon="-9.269541">
        <ele>254.781</ele>
        <time>2026-04-30T00:24:40.825858193Z</time>
      </trkpt>
      <trkpt lat="38.952496" lon="-9.269571">
        <ele>254.561</ele>
        <time>2026-04-30T00:25:00.825860868Z</time>
      </trkpt>
      <trkpt lat="38.952544" lon="-9.269595">
        <ele>254.517</ele>
        <time>2026-04-30T00:25:20.825863503Z</time>
      </trkpt>
      <trkpt lat="38.952575" lon="-9.269596">
        <ele>254.609</ele>
        <time>2026-04-30T00:25:40.825866138Z</time>
      </trkpt>
      <trkpt lat="38.952626" lon="-9.269583">
        <ele>254.780</ele>
        <time>2026-04-30T00:26:00.825868803Z</time>
      </trkpt>
      <trkpt lat="38.952662" lon="-9.269600">
        <ele>254.874</ele>
        <time>2026-04-30T00:26:20.825871418Z</time>
      </trkpt>
      <trkpt lat="38.952667" lon="-9.269639">
        <ele>254.769</ele>
        <time>2026-04-30T00:26:40.825874053Z</time>
      </trkpt>
      <trkpt lat="38.952701" lon="-9.269639">
        <ele>254.846</ele>
        <time>2026-04-30T00:27:00.825876688Z</time>
      </trkpt>
      <trkpt lat="38.952733" lon="-9.269628">
        <ele>254.993</ele>
        <time>2026-04-30T00:27:20.825879323Z</time>
      </trkpt>
      <trkpt lat="38.952761" lon="-9.269642">
        <ele>255.060</ele>
        <time>2026-04-30T00:27:40.825881998Z</time>
      </trkpt>
      <trkpt lat="38.952769" lon="-9.269698">
        <ele>255.082</ele>
        <time>2026-04-30T00:28:00.825884683Z</time>
      </trkpt>
      <trkpt lat="38.952786" lon="-9.269742">
        <ele>254.977</ele>
        <time>2026-04-30T00:28:20.825887298Z</time>
      </trkpt>
      <trkpt lat="38.952856" lon="-9.269791">
        <ele>254.723</ele>
        <time>2026-04-30T00:28:40.825894130Z</time>
      </trkpt>
      <trkpt lat="38.953010" lon="-9.269890">
        <ele>255.369</ele>
        <time>2026-04-30T00:29:00.825896916Z</time>
      </trkpt>
      <trkpt lat="38.953100" lon="-9.269954">
        <ele>255.604</ele>
        <time>2026-04-30T00:29:20.825899621Z</time>
      </trkpt>
      <trkpt lat="38.953182" lon="-9.270018">
        <ele>255.624</ele>
        <time>2026-04-30T00:29:40.825902286Z</time>
      </trkpt>
      <trkpt lat="38.953249" lon="-9.270072">
        <ele>255.609</ele>
        <time>2026-04-30T00:30:00.825904961Z</time>
      </trkpt>
      <trkpt lat="38.953292" lon="-9.270071">
        <ele>255.518</ele>
        <time>2026-04-30T00:30:20.825907606Z</time>
      </trkpt>
      <trkpt lat="38.953422" lon="-9.270093">
        <ele>253.692</ele>
        <time>2026-04-30T00:30:40.825910240Z</time>
      </trkpt>
      <trkpt lat="38.953455" lon="-9.270115">
        <ele>253.137</ele>
        <time>2026-04-30T00:31:00.825912865Z</time>
      </trkpt>
      <trkpt lat="38.953566" lon="-9.270110">
        <ele>250.654</ele>
        <time>2026-04-30T00:31:20.825915550Z</time>
      </trkpt>
      <trkpt lat="38.953767" lon="-9.270131">
        <ele>244.661</ele>
        <time>2026-04-30T00:31:40.825918165Z</time>
      </trkpt>
      <trkpt lat="38.954107" lon="-9.270200">
        <ele>237.278</ele>
        <time>2026-04-30T00:32:00.825920780Z</time>
      </trkpt>
      <trkpt lat="38.954475" lon="-9.270226">
        <ele>228.860</ele>
        <time>2026-04-30T00:32:20.825923415Z</time>
      </trkpt>
      <trkpt lat="38.954716" lon="-9.270260">
        <ele>226.085</ele>
        <time>2026-04-30T00:32:40.825926040Z</time>
      </trkpt>
      <trkpt lat="38.954804" lon="-9.270116">
        <ele>223.481</ele>
        <time>2026-04-30T00:33:00.825928705Z</time>
      </trkpt>
      <trkpt lat="38.954831" lon="-9.270007">
        <ele>222.326</ele>
        <time>2026-04-30T00:33:20.825931490Z</time>
      </trkpt>
      <trkpt lat="38.954830" lon="-9.269906">
        <ele>221.847</ele>
        <time>2026-04-30T00:33:40.825934145Z</time>
      </trkpt>
      <trkpt lat="38.954806" lon="-9.269862">
        <ele>222.311</ele>
        <time>2026-04-30T00:34:00.825936770Z</time>
      </trkpt>
      <trkpt lat="38.954876" lon="-9.269890">
        <ele>220.209</ele>
        <time>2026-04-30T00:34:20.825939455Z</time>
      </trkpt>
      <trkpt lat="38.954955" lon="-9.270090">
        <ele>219.514</ele>
        <time>2026-04-30T00:34:40.825942130Z</time>
      </trkpt>
      <trkpt lat="38.955015" lon="-9.270376">
        <ele>218.548</ele>
        <time>2026-04-30T00:35:00.825944765Z</time>
      </trkpt>
      <trkpt lat="38.955024" lon="-9.270499">
        <ele>218.113</ele>
        <time>2026-04-30T00:35:20.825947390Z</time>
      </trkpt>
      <trkpt lat="38.955060" lon="-9.270770">
        <ele>217.010</ele>
        <time>2026-04-30T00:35:40.825950035Z</time>
      </trkpt>
      <trkpt lat="38.955127" lon="-9.270956">
        <ele>214.097</ele>
        <time>2026-04-30T00:36:00.825952640Z</time>
      </trkpt>
      <trkpt lat="38.955279" lon="-9.271189">
        <ele>207.814</ele>
        <time>2026-04-30T00:36:20.825955205Z</time>
      </trkpt>
      <trkpt lat="38.955310" lon="-9.271264">
        <ele>205.516</ele>
        <time>2026-04-30T00:36:40.825957850Z</time>
      </trkpt>
      <trkpt lat="38.955388" lon="-9.271385">
        <ele>201.171</ele>
        <time>2026-04-30T00:37:00.825960484Z</time>
      </trkpt>
      <trkpt lat="38.955452" lon="-9.271441">
        <ele>198.027</ele>
        <time>2026-04-30T00:37:20.825963079Z</time>
      </trkpt>
      <trkpt lat="38.955516" lon="-9.271481">
        <ele>195.356</ele>
        <time>2026-04-30T00:37:40.825965794Z</time>
      </trkpt>
      <trkpt lat="38.955588" lon="-9.271536">
        <ele>192.259</ele>
        <time>2026-04-30T00:38:00.825968499Z</time>
      </trkpt>
      <trkpt lat="38.955620" lon="-9.271502">
        <ele>191.414</ele>
        <time>2026-04-30T00:38:20.825971164Z</time>
      </trkpt>
      <trkpt lat="38.955671" lon="-9.271518">
        <ele>189.309</ele>
        <time>2026-04-30T00:38:40.825973819Z</time>
      </trkpt>
      <trkpt lat="38.955751" lon="-9.271543">
        <ele>185.847</ele>
        <time>2026-04-30T00:39:00.825976394Z</time>
      </trkpt>
      <trkpt lat="38.955726" lon="-9.271469">
        <ele>188.161</ele>
        <time>2026-04-30T00:39:20.825978979Z</time>
      </trkpt>
      <trkpt lat="38.955682" lon="-9.271422">
        <ele>190.486</ele>
        <time>2026-04-30T00:39:40.825981624Z</time>
      </trkpt>
      <trkpt lat="38.955652" lon="-9.271355">
        <ele>192.133</ele>
        <time>2026-04-30T00:40:00.825984239Z</time>
      </trkpt>
      <trkpt lat="38.955659" lon="-9.271146">
        <ele>193.470</ele>
        <time>2026-04-30T00:40:20.825986834Z</time>
      </trkpt>
      <trkpt lat="38.955716" lon="-9.271117">
        <ele>191.887</ele>
        <time>2026-04-30T00:40:40.825989499Z</time>
      </trkpt>
      <trkpt lat="38.955740" lon="-9.271106">
        <ele>191.019</ele>
        <time>2026-04-30T00:41:00.825992124Z</time>
      </trkpt>
      <trkpt lat="38.955692" lon="-9.270911">
        <ele>192.934</ele>
        <time>2026-04-30T00:41:20.825994699Z</time>
      </trkpt>
      <trkpt lat="38.955637" lon="-9.270665">
        <ele>195.440</ele>
        <time>2026-04-30T00:41:40.825997273Z</time>
      </trkpt>
      <trkpt lat="38.955634" lon="-9.270410">
        <ele>196.175</ele>
        <time>2026-04-30T00:42:00.825999998Z</time>
      </trkpt>
      <trkpt lat="38.955649" lon="-9.270281">
        <ele>196.028</ele>
        <time>2026-04-30T00:42:20.826002653Z</time>
      </trkpt>
      <trkpt lat="38.955702" lon="-9.270229">
        <ele>194.420</ele>
        <time>2026-04-30T00:42:40.826005268Z</time>
      </trkpt>
      <trkpt lat="38.955821" lon="-9.270361">
        <ele>190.409</ele>
        <time>2026-04-30T00:43:00.826007943Z</time>
      </trkpt>
      <trkpt lat="38.955938" lon="-9.270476">
        <ele>185.089</ele>
        <time>2026-04-30T00:43:20.826010558Z</time>
      </trkpt>
      <trkpt lat="38.956049" lon="-9.270481">
        <ele>179.713</ele>
        <time>2026-04-30T00:43:40.826013173Z</time>
      </trkpt>
      <trkpt lat="38.956093" lon="-9.270461">
        <ele>177.538</ele>
        <time>2026-04-30T00:44:00.826015838Z</time>
      </trkpt>
      <trkpt lat="38.956155" lon="-9.270366">
        <ele>174.685</ele>
        <time>2026-04-30T00:44:20.826018483Z</time>
      </trkpt>
      <trkpt lat="38.956204" lon="-9.270325">
        <ele>172.742</ele>
        <time>2026-04-30T00:44:40.826021098Z</time>
      </trkpt>
      <trkpt lat="38.956237" lon="-9.270300">
        <ele>171.489</ele>
        <time>2026-04-30T00:45:00.826023713Z</time>
      </trkpt>
      <trkpt lat="38.956273" lon="-9.270291">
        <ele>170.121</ele>
        <time>2026-04-30T00:45:20.826026338Z</time>
      </trkpt>
      <trkpt lat="38.956292" lon="-9.270313">
        <ele>169.436</ele>
        <time>2026-04-30T00:45:40.826028923Z</time>
      </trkpt>
      <trkpt lat="38.956323" lon="-9.270310">
        <ele>168.232</ele>
        <time>2026-04-30T00:46:00.826031588Z</time>
      </trkpt>
      <trkpt lat="38.956355" lon="-9.270290">
        <ele>167.132</ele>
        <time>2026-04-30T00:46:20.826034343Z</time>
      </trkpt>
      <trkpt lat="38.956375" lon="-9.270267">
        <ele>166.592</ele>
        <time>2026-04-30T00:46:40.826037018Z</time>
      </trkpt>
      <trkpt lat="38.956363" lon="-9.270159">
        <ele>167.411</ele>
        <time>2026-04-30T00:47:00.826039673Z</time>
      </trkpt>
      <trkpt lat="38.956367" lon="-9.270095">
        <ele>167.609</ele>
        <time>2026-04-30T00:47:20.826042298Z</time>
      </trkpt>
      <trkpt lat="38.956398" lon="-9.270023">
        <ele>166.835</ele>
        <time>2026-04-30T00:47:40.826044973Z</time>
      </trkpt>
      <trkpt lat="38.956434" lon="-9.269967">
        <ele>166.699</ele>
        <time>2026-04-30T00:48:00.826052056Z</time>
      </trkpt>
      <trkpt lat="38.956498" lon="-9.269916">
        <ele>165.994</ele>
        <time>2026-04-30T00:48:20.826054741Z</time>
      </trkpt>
      <trkpt lat="38.956521" lon="-9.269861">
        <ele>165.611</ele>
        <time>2026-04-30T00:48:40.826057316Z</time>
      </trkpt>
      <trkpt lat="38.956541" lon="-9.269791">
        <ele>165.378</ele>
        <time>2026-04-30T00:49:00.826059961Z</time>
      </trkpt>
      <trkpt lat="38.956552" lon="-9.269719">
        <ele>165.015</ele>
        <time>2026-04-30T00:49:20.826062555Z</time>
      </trkpt>
      <trkpt lat="38.956553" lon="-9.269647">
        <ele>164.697</ele>
        <time>2026-04-30T00:49:40.826065210Z</time>
      </trkpt>
      <trkpt lat="38.956557" lon="-9.269581">
        <ele>164.132</ele>
        <time>2026-04-30T00:50:00.826067845Z</time>
      </trkpt>
      <trkpt lat="38.956572" lon="-9.269522">
        <ele>163.598</ele>
        <time>2026-04-30T00:50:20.826070581Z</time>
      </trkpt>
      <trkpt lat="38.956606" lon="-9.269485">
        <ele>162.988</ele>
        <time>2026-04-30T00:50:40.826073406Z</time>
      </trkpt>
      <trkpt lat="38.956641" lon="-9.269416">
        <ele>162.324</ele>
        <time>2026-04-30T00:51:00.826076081Z</time>
      </trkpt>
      <trkpt lat="38.956644" lon="-9.269304">
        <ele>162.526</ele>
        <time>2026-04-30T00:51:20.826078736Z</time>
      </trkpt>
      <trkpt lat="38.956649" lon="-9.269244">
        <ele>162.709</ele>
        <time>2026-04-30T00:51:40.826081431Z</time>
      </trkpt>
      <trkpt lat="38.956653" lon="-9.269205">
        <ele>162.860</ele>
        <time>2026-04-30T00:52:00.826084196Z</time>
      </trkpt>
      <trkpt lat="38.956677" lon="-9.269130">
        <ele>163.224</ele>
        <time>2026-04-30T00:52:20.826086831Z</time>
      </trkpt>
      <trkpt lat="38.956719" lon="-9.269120">
        <ele>164.049</ele>
        <time>2026-04-30T00:52:40.826089466Z</time>
      </trkpt>
      <trkpt lat="38.956755" lon="-9.269130">
        <ele>164.666</ele>
        <time>2026-04-30T00:53:00.826092101Z</time>
      </trkpt>
      <trkpt lat="38.956788" lon="-9.269161">
        <ele>165.293</ele>
        <time>2026-04-30T00:53:20.826094726Z</time>
      </trkpt>
      <trkpt lat="38.956813" lon="-9.269225">
        <ele>165.460</ele>
        <time>2026-04-30T00:53:40.826097451Z</time>
      </trkpt>
      <trkpt lat="38.956823" lon="-9.269320">
        <ele>165.352</ele>
        <time>2026-04-30T00:54:00.826100136Z</time>
      </trkpt>
      <trkpt lat="38.956842" lon="-9.269371">
        <ele>165.467</ele>
        <time>2026-04-30T00:54:20.826102771Z</time>
      </trkpt>
      <trkpt lat="38.956896" lon="-9.269422">
        <ele>166.213</ele>
        <time>2026-04-30T00:54:40.826105446Z</time>
      </trkpt>
      <trkpt lat="38.956950" lon="-9.269423">
        <ele>167.393</ele>
        <time>2026-04-30T00:55:00.826108171Z</time>
      </trkpt>
      <trkpt lat="38.956962" lon="-9.269457">
        <ele>167.765</ele>
        <time>2026-04-30T00:55:20.826110776Z</time>
      </trkpt>
      <trkpt lat="38.957019" lon="-9.269655">
        <ele>170.321</ele>
        <time>2026-04-30T00:55:40.826113451Z</time>
      </trkpt>
      <trkpt lat="38.957014" lon="-9.270101">
        <ele>172.009</ele>
        <time>2026-04-30T00:56:00.826116066Z</time>
      </trkpt>
      <trkpt lat="38.956983" lon="-9.270492">
        <ele>173.111</ele>
        <time>2026-04-30T00:56:20.826118630Z</time>
      </trkpt>
      <trkpt lat="38.957034" lon="-9.270954">
        <ele>174.365</ele>
        <time>2026-04-30T00:56:40.826121265Z</time>
      </trkpt>
      <trkpt lat="38.956995" lon="-9.271328">
        <ele>172.070</ele>
        <time>2026-04-30T00:57:00.826123910Z</time>
      </trkpt>
      <trkpt lat="38.956914" lon="-9.271720">
        <ele>166.867</ele>
        <time>2026-04-30T00:57:20.826126585Z</time>
      </trkpt>
      <trkpt lat="38.956916" lon="-9.271995">
        <ele>165.494</ele>
        <time>2026-04-30T00:57:40.826129230Z</time>
      </trkpt>
      <trkpt lat="38.956920" lon="-9.272076">
        <ele>165.571</ele>
        <time>2026-04-30T00:58:00.826131915Z</time>
      </trkpt>
      <trkpt lat="38.957068" lon="-9.272117">
        <ele>170.263</ele>
        <time>2026-04-30T00:58:20.826134540Z</time>
      </trkpt>
      <trkpt lat="38.957363" lon="-9.272132">
        <ele>179.228</ele>
        <time>2026-04-30T00:58:40.826137175Z</time>
      </trkpt>
      <trkpt lat="38.957667" lon="-9.272073">
        <ele>185.424</ele>
        <time>2026-04-30T00:59:00.826139900Z</time>
      </trkpt>
      <trkpt lat="38.957880" lon="-9.271929">
        <ele>186.892</ele>
        <time>2026-04-30T00:59:20.826142645Z</time>
      </trkpt>
      <trkpt lat="38.958309" lon="-9.271851">
        <ele>189.073</ele>
        <time>2026-04-30T00:59:40.826145290Z</time>
      </trkpt>
      <trkpt lat="38.958539" lon="-9.271752">
        <ele>186.820</ele>
        <time>2026-04-30T01:00:00.826147935Z</time>
      </trkpt>
      <trkpt lat="38.958752" lon="-9.271785">
        <ele>184.609</ele>
        <time>2026-04-30T01:00:20.826150680Z</time>
      </trkpt>
      <trkpt lat="38.959132" lon="-9.271977">
        <ele>182.111</ele>
        <time>2026-04-30T01:00:40.826153325Z</time>
      </trkpt>
      <trkpt lat="38.959270" lon="-9.271961">
        <ele>182.955</ele>
        <time>2026-04-30T01:01:00.826156030Z</time>
      </trkpt>
      <trkpt lat="38.959523" lon="-9.271866">
        <ele>184.750</ele>
        <time>2026-04-30T01:01:20.826158695Z</time>
      </trkpt>
      <trkpt lat="38.960125" lon="-9.271770">
        <ele>187.737</ele>
        <time>2026-04-30T01:01:40.826161370Z</time>
      </trkpt>
      <trkpt lat="38.960487" lon="-9.271708">
        <ele>190.894</ele>
        <time>2026-04-30T01:02:00.826163995Z</time>
      </trkpt>
      <trkpt lat="38.960728" lon="-9.271729">
        <ele>193.221</ele>
        <time>2026-04-30T01:02:20.826166570Z</time>
      </trkpt>
      <trkpt lat="38.961114" lon="-9.271938">
        <ele>198.023</ele>
        <time>2026-04-30T01:02:40.826169175Z</time>
      </trkpt>
      <trkpt lat="38.961420" lon="-9.272093">
        <ele>202.878</ele>
        <time>2026-04-30T01:03:00.826171770Z</time>
      </trkpt>
      <trkpt lat="38.961445" lon="-9.272802">
        <ele>210.014</ele>
        <time>2026-04-30T01:03:20.826174445Z</time>
      </trkpt>
      <trkpt lat="38.961348" lon="-9.273027">
        <ele>214.147</ele>
        <time>2026-04-30T01:03:40.826177110Z</time>
      </trkpt>
      <trkpt lat="38.961481" lon="-9.273144">
        <ele>215.229</ele>
        <time>2026-04-30T01:04:00.826179755Z</time>
      </trkpt>
      <trkpt lat="38.962516" lon="-9.273844">
        <ele>222.321</ele>
        <time>2026-04-30T01:04:20.826182380Z</time>
      </trkpt>
      <trkpt lat="38.963492" lon="-9.274606">
        <ele>237.609</ele>
        <time>2026-04-30T01:04:40.826185045Z</time>
      </trkpt>
      <trkpt lat="38.963792" lon="-9.274571">
        <ele>235.926</ele>
        <time>2026-04-30T01:05:00.826187640Z</time>
      </trkpt>
      <trkpt lat="38.964063" lon="-9.275050">
        <ele>244.630</ele>
        <time>2026-04-30T01:05:20.826190284Z</time>
      </trkpt>
      <trkpt lat="38.964432" lon="-9.275371">
        <ele>248.795</ele>
        <time>2026-04-30T01:05:40.826192869Z</time>
      </trkpt>
      <trkpt lat="38.965143" lon="-9.275840">
        <ele>244.142</ele>
        <time>2026-04-30T01:06:00.826195514Z</time>
      </trkpt>
      <trkpt lat="38.965411" lon="-9.276153">
        <ele>246.499</ele>
        <time>2026-04-30T01:06:20.826198119Z</time>
      </trkpt>
      <trkpt lat="38.965840" lon="-9.276548">
        <ele>239.346</ele>
        <time>2026-04-30T01:06:40.826200814Z</time>
      </trkpt>
      <trkpt lat="38.965697" lon="-9.277259">
        <ele>253.768</ele>
        <time>2026-04-30T01:07:00.826203439Z</time>
      </trkpt>
      <trkpt lat="38.965988" lon="-9.278114">
        <ele>248.663</ele>
        <time>2026-04-30T01:07:20.826206034Z</time>
      </trkpt>
      <trkpt lat="38.966298" lon="-9.278513">
        <ele>244.239</ele>
        <time>2026-04-30T01:07:40.826213037Z</time>
      </trkpt>
      <trkpt lat="38.966608" lon="-9.279200">
        <ele>244.131</ele>
        <time>2026-04-30T01:08:00.826215742Z</time>
      </trkpt>
      <trkpt lat="38.967503" lon="-9.280440">
        <ele>238.761</ele>
        <time>2026-04-30T01:08:20.826218437Z</time>
      </trkpt>
      <trkpt lat="38.968099" lon="-9.281114">
        <ele>242.707</ele>
        <time>2026-04-30T01:08:40.826221062Z</time>
      </trkpt>
      <trkpt lat="38.968094" lon="-9.282340">
        <ele>246.309</ele>
        <time>2026-04-30T01:09:00.826223757Z</time>
      </trkpt>
      <trkpt lat="38.968492" lon="-9.282466">
        <ele>234.745</ele>
        <time>2026-04-30T01:09:20.826226382Z</time>
      </trkpt>
      <trkpt lat="38.968648" lon="-9.282808">
        <ele>232.149</ele>
        <time>2026-04-30T01:09:40.826229007Z</time>
      </trkpt>
      <trkpt lat="38.969330" lon="-9.282973">
        <ele>213.924</ele>
        <time>2026-04-30T01:10:00.826231662Z</time>
      </trkpt>
      <trkpt lat="38.969714" lon="-9.283238">
        <ele>207.531</ele>
        <time>2026-04-30T01:10:20.826234307Z</time>
      </trkpt>
      <trkpt lat="38.969910" lon="-9.283310">
        <ele>204.638</ele>
        <time>2026-04-30T01:10:40.826236942Z</time>
      </trkpt>
      <trkpt lat="38.970132" lon="-9.283650">
        <ele>207.455</ele>
        <time>2026-04-30T01:11:00.826239587Z</time>
      </trkpt>
      <trkpt lat="38.970582" lon="-9.283933">
        <ele>201.347</ele>
        <time>2026-04-30T01:11:20.826242242Z</time>
      </trkpt>
      <trkpt lat="38.970821" lon="-9.284281">
        <ele>211.222</ele>
        <time>2026-04-30T01:11:40.826244887Z</time>
      </trkpt>
      <trkpt lat="38.971221" lon="-9.284564">
        <ele>207.678</ele>
        <time>2026-04-30T01:12:00.826247532Z</time>
      </trkpt>
      <trkpt lat="38.971613" lon="-9.284501">
        <ele>196.774</ele>
        <time>2026-04-30T01:12:20.826250267Z</time>
      </trkpt>
      <trkpt lat="38.971601" lon="-9.284829">
        <ele>198.056</ele>
        <time>2026-04-30T01:12:40.826252922Z</time>
      </trkpt>
      <trkpt lat="38.971726" lon="-9.285156">
        <ele>186.921</ele>
        <time>2026-04-30T01:13:00.826255657Z</time>
      </trkpt>
      <trkpt lat="38.971564" lon="-9.285492">
        <ele>191.609</ele>
        <time>2026-04-30T01:13:20.826258312Z</time>
      </trkpt>
      <trkpt lat="38.971689" lon="-9.285987">
        <ele>175.979</ele>
        <time>2026-04-30T01:13:40.826260967Z</time>
      </trkpt>
      <trkpt lat="38.971802" lon="-9.285808">
        <ele>173.153</ele>
        <time>2026-04-30T01:14:00.826263572Z</time>
      </trkpt>
      <trkpt lat="38.971995" lon="-9.285267">
        <ele>167.388</ele>
        <time>2026-04-30T01:14:20.826266166Z</time>
      </trkpt>
      <trkpt lat="38.971934" lon="-9.284826">
        <ele>179.185</ele>
        <time>2026-04-30T01:14:40.826268841Z</time>
      </trkpt>
      <trkpt lat="38.972166" lon="-9.284472">
        <ele>169.882</ele>
        <time>2026-04-30T01:15:00.826271496Z</time>
      </trkpt>
      <trkpt lat="38.972308" lon="-9.283924">
        <ele>167.489</ele>
        <time>2026-04-30T01:15:20.826274131Z</time>
      </trkpt>
      <trkpt lat="38.972154" lon="-9.283746">
        <ele>170.031</ele>
        <time>2026-04-30T01:15:40.826276756Z</time>
      </trkpt>
      <trkpt lat="38.971696" lon="-9.283766">
        <ele>177.026</ele>
        <time>2026-04-30T01:16:00.826279381Z</time>
      </trkpt>
      <trkpt lat="38.971421" lon="-9.283604">
        <ele>174.792</ele>
        <time>2026-04-30T01:16:20.826282036Z</time>
      </trkpt>
      <trkpt lat="38.970955" lon="-9.282723">
        <ele>163.914</ele>
        <time>2026-04-30T01:16:40.826284731Z</time>
      </trkpt>
      <trkpt lat="38.970610" lon="-9.282407">
        <ele>164.154</ele>
        <time>2026-04-30T01:17:00.826287426Z</time>
      </trkpt>
      <trkpt lat="38.970511" lon="-9.282132">
        <ele>161.909</ele>
        <time>2026-04-30T01:17:20.826290061Z</time>
      </trkpt>
      <trkpt lat="38.970384" lon="-9.281278">
        <ele>163.309</ele>
        <time>2026-04-30T01:17:40.826292696Z</time>
      </trkpt>
      <trkpt lat="38.970729" lon="-9.281078">
        <ele>153.243</ele>
        <time>2026-04-30T01:18:00.826295301Z</time>
      </trkpt>
      <trkpt lat="38.971123" lon="-9.280624">
        <ele>142.747</ele>
        <time>2026-04-30T01:18:20.826297946Z</time>
      </trkpt>
      <trkpt lat="38.971236" lon="-9.280249">
        <ele>143.562</ele>
        <time>2026-04-30T01:18:40.826300591Z</time>
      </trkpt>
      <trkpt lat="38.971259" lon="-9.279356">
        <ele>145.969</ele>
        <time>2026-04-30T01:19:00.826303256Z</time>
      </trkpt>
      <trkpt lat="38.971327" lon="-9.278970">
        <ele>139.036</ele>
        <time>2026-04-30T01:19:20.826305861Z</time>
      </trkpt>
      <trkpt lat="38.970869" lon="-9.278751">
        <ele>138.123</ele>
        <time>2026-04-30T01:19:40.826308476Z</time>
      </trkpt>
      <trkpt lat="38.970675" lon="-9.278270">
        <ele>137.335</ele>
        <time>2026-04-30T01:20:00.826311091Z</time>
      </trkpt>
      <trkpt lat="38.970527" lon="-9.278064">
        <ele>137.290</ele>
        <time>2026-04-30T01:20:20.826313735Z</time>
      </trkpt>
      <trkpt lat="38.969966" lon="-9.277925">
        <ele>134.996</ele>
        <time>2026-04-30T01:20:40.826316411Z</time>
      </trkpt>
      <trkpt lat="38.969418" lon="-9.277726">
        <ele>138.969</ele>
        <time>2026-04-30T01:21:00.826319116Z</time>
      </trkpt>
      <trkpt lat="38.968710" lon="-9.276610">
        <ele>151.104</ele>
        <time>2026-04-30T01:21:20.826321811Z</time>
      </trkpt>
      <trkpt lat="38.968342" lon="-9.275941">
        <ele>160.324</ele>
        <time>2026-04-30T01:21:40.826324456Z</time>
      </trkpt>
      <trkpt lat="38.967915" lon="-9.275550">
        <ele>167.509</ele>
        <time>2026-04-30T01:22:00.826327111Z</time>
      </trkpt>
      <trkpt lat="38.967630" lon="-9.274814">
        <ele>166.178</ele>
        <time>2026-04-30T01:22:20.826329705Z</time>
      </trkpt>
      <trkpt lat="38.967285" lon="-9.274596">
        <ele>163.812</ele>
        <time>2026-04-30T01:22:40.826332290Z</time>
      </trkpt>
      <trkpt lat="38.966941" lon="-9.274572">
        <ele>164.417</ele>
        <time>2026-04-30T01:23:00.826334875Z</time>
      </trkpt>
      <trkpt lat="38.966663" lon="-9.274337">
        <ele>164.264</ele>
        <time>2026-04-30T01:23:20.826337500Z</time>
      </trkpt>
      <trkpt lat="38.966543" lon="-9.273732">
        <ele>158.821</ele>
        <time>2026-04-30T01:23:40.826340125Z</time>
      </trkpt>
      <trkpt lat="38.966351" lon="-9.273653">
        <ele>161.018</ele>
        <time>2026-04-30T01:24:00.826342700Z</time>
      </trkpt>
      <trkpt lat="38.966079" lon="-9.273783">
        <ele>166.110</ele>
        <time>2026-04-30T01:24:20.826345325Z</time>
      </trkpt>
      <trkpt lat="38.965726" lon="-9.273673">
        <ele>164.545</ele>
        <time>2026-04-30T01:24:40.826347960Z</time>
      </trkpt>
      <trkpt lat="38.965228" lon="-9.273153">
        <ele>164.081</ele>
        <time>2026-04-30T01:25:00.826350594Z</time>
      </trkpt>
      <trkpt lat="38.964358" lon="-9.272492">
        <ele>167.728</ele>
        <time>2026-04-30T01:25:20.826353259Z</time>
      </trkpt>
      <trkpt lat="38.964060" lon="-9.272432">
        <ele>171.889</ele>
        <time>2026-04-30T01:25:40.826355985Z</time>
      </trkpt>
      <trkpt lat="38.963809" lon="-9.272555">
        <ele>176.417</ele>
        <time>2026-04-30T01:26:00.826358609Z</time>
      </trkpt>
      <trkpt lat="38.963467" lon="-9.272452">
        <ele>177.009</ele>
        <time>2026-04-30T01:26:20.826361204Z</time>
      </trkpt>
      <trkpt lat="38.962824" lon="-9.272459">
        <ele>184.134</ele>
        <time>2026-04-30T01:26:40.826363869Z</time>
      </trkpt>
      <trkpt lat="38.962714" lon="-9.272360">
        <ele>184.188</ele>
        <time>2026-04-30T01:27:00.826371804Z</time>
      </trkpt>
      <trkpt lat="38.962695" lon="-9.272235">
        <ele>183.373</ele>
        <time>2026-04-30T01:27:20.826374499Z</time>
      </trkpt>
      <trkpt lat="38.962749" lon="-9.272031">
        <ele>183.970</ele>
        <time>2026-04-30T01:27:40.826377124Z</time>
      </trkpt>
      <trkpt lat="38.962825" lon="-9.271956">
        <ele>183.127</ele>
        <time>2026-04-30T01:28:00.826379689Z</time>
      </trkpt>
      <trkpt lat="38.963097" lon="-9.271831">
        <ele>179.384</ele>
        <time>2026-04-30T01:28:20.826382304Z</time>
      </trkpt>
      <trkpt lat="38.963536" lon="-9.271175">
        <ele>183.716</ele>
        <time>2026-04-30T01:28:40.826384999Z</time>
      </trkpt>
      <trkpt lat="38.963722" lon="-9.270845">
        <ele>184.231</ele>
        <time>2026-04-30T01:29:00.826387584Z</time>
      </trkpt>
      <trkpt lat="38.963919" lon="-9.270648">
        <ele>181.357</ele>
        <time>2026-04-30T01:29:20.826390219Z</time>
      </trkpt>
      <trkpt lat="38.964208" lon="-9.270508">
        <ele>180.235</ele>
        <time>2026-04-30T01:29:40.826392914Z</time>
      </trkpt>
      <trkpt lat="38.964090" lon="-9.270332">
        <ele>182.886</ele>
        <time>2026-04-30T01:30:00.826395609Z</time>
      </trkpt>
      <trkpt lat="38.964066" lon="-9.270159">
        <ele>183.414</ele>
        <time>2026-04-30T01:30:20.826398254Z</time>
      </trkpt>
      <trkpt lat="38.964054" lon="-9.270060">
        <ele>183.409</ele>
        <time>2026-04-30T01:30:40.826400899Z</time>
      </trkpt>
      <trkpt lat="38.963814" lon="-9.270025">
        <ele>185.645</ele>
        <time>2026-04-30T01:31:00.826403513Z</time>
      </trkpt>
      <trkpt lat="38.963748" lon="-9.270002">
        <ele>187.089</ele>
        <time>2026-04-30T01:31:20.826406178Z</time>
      </trkpt>
      <trkpt lat="38.963589" lon="-9.270128">
        <ele>190.884</ele>
        <time>2026-04-30T01:31:40.826408783Z</time>
      </trkpt>
      <trkpt lat="38.963482" lon="-9.270114">
        <ele>194.751</ele>
        <time>2026-04-30T01:32:00.826411378Z</time>
      </trkpt>
      <trkpt lat="38.963391" lon="-9.270030">
        <ele>198.518</ele>
        <time>2026-04-30T01:32:20.826414003Z</time>
      </trkpt>
      <trkpt lat="38.963341" lon="-9.269927">
        <ele>200.435</ele>
        <time>2026-04-30T01:32:40.826416588Z</time>
      </trkpt>
      <trkpt lat="38.963273" lon="-9.269782">
        <ele>202.697</ele>
        <time>2026-04-30T01:33:00.826419213Z</time>
      </trkpt>
      <trkpt lat="38.963254" lon="-9.269601">
        <ele>202.382</ele>
        <time>2026-04-30T01:33:20.826421808Z</time>
      </trkpt>
      <trkpt lat="38.963295" lon="-9.269328">
        <ele>199.138</ele>
        <time>2026-04-30T01:33:40.826424423Z</time>
      </trkpt>
      <trkpt lat="38.963295" lon="-9.269078">
        <ele>198.744</ele>
        <time>2026-04-30T01:34:00.826427138Z</time>
      </trkpt>
      <trkpt lat="38.963273" lon="-9.268925">
        <ele>199.905</ele>
        <time>2026-04-30T01:34:20.826429803Z</time>
      </trkpt>
      <trkpt lat="38.963180" lon="-9.268783">
        <ele>202.915</ele>
        <time>2026-04-30T01:34:40.826432448Z</time>
      </trkpt>
      <trkpt lat="38.963145" lon="-9.268692">
        <ele>203.909</ele>
        <time>2026-04-30T01:35:00.826435073Z</time>
      </trkpt>
      <trkpt lat="38.963145" lon="-9.268572">
        <ele>203.586</ele>
        <time>2026-04-30T01:35:20.826437677Z</time>
      </trkpt>
      <trkpt lat="38.963108" lon="-9.268453">
        <ele>203.640</ele>
        <time>2026-04-30T01:35:40.826440433Z</time>
      </trkpt>
      <trkpt lat="38.962959" lon="-9.268290">
        <ele>206.655</ele>
        <time>2026-04-30T01:36:00.826443078Z</time>
      </trkpt>
      <trkpt lat="38.962925" lon="-9.268205">
        <ele>207.132</ele>
        <time>2026-04-30T01:36:20.826445642Z</time>
      </trkpt>
      <trkpt lat="38.962963" lon="-9.268069">
        <ele>205.469</ele>
        <time>2026-04-30T01:36:40.826448237Z</time>
      </trkpt>
      <trkpt lat="38.963007" lon="-9.267946">
        <ele>204.296</ele>
        <time>2026-04-30T01:37:00.826450822Z</time>
      </trkpt>
      <trkpt lat="38.962976" lon="-9.267870">
        <ele>204.868</ele>
        <time>2026-04-30T01:37:20.826453447Z</time>
      </trkpt>
      <trkpt lat="38.962912" lon="-9.267835">
        <ele>206.233</ele>
        <time>2026-04-30T01:37:40.826456042Z</time>
      </trkpt>
      <trkpt lat="38.962853" lon="-9.267825">
        <ele>207.549</ele>
        <time>2026-04-30T01:38:00.826458697Z</time>
      </trkpt>
      <trkpt lat="38.962813" lon="-9.267815">
        <ele>208.452</ele>
        <time>2026-04-30T01:38:20.826461512Z</time>
      </trkpt>
      <trkpt lat="38.962790" lon="-9.267812">
        <ele>208.953</ele>
        <time>2026-04-30T01:38:40.826464127Z</time>
      </trkpt>
      <trkpt lat="38.962760" lon="-9.267805">
        <ele>209.408</ele>
        <time>2026-04-30T01:39:00.826466722Z</time>
      </trkpt>
      <trkpt lat="38.962749" lon="-9.267778">
        <ele>209.509</ele>
        <time>2026-04-30T01:39:20.826469377Z</time>
      </trkpt>
      <trkpt lat="38.962753" lon="-9.267753">
        <ele>209.167</ele>
        <time>2026-04-30T01:39:40.826471972Z</time>
      </trkpt>
      <trkpt lat="38.962740" lon="-9.267739">
        <ele>209.161</ele>
        <time>2026-04-30T01:40:00.826474627Z</time>
      </trkpt>
      <trkpt lat="38.962718" lon="-9.267721">
        <ele>209.226</ele>
        <time>2026-04-30T01:40:20.826477221Z</time>
      </trkpt>
      <trkpt lat="38.962705" lon="-9.267698">
        <ele>209.153</ele>
        <time>2026-04-30T01:40:40.826479856Z</time>
      </trkpt>
      <trkpt lat="38.962703" lon="-9.267672">
        <ele>208.740</ele>
        <time>2026-04-30T01:41:00.826482441Z</time>
      </trkpt>
      <trkpt lat="38.962699" lon="-9.267626">
        <ele>208.137</ele>
        <time>2026-04-30T01:41:20.826485036Z</time>
      </trkpt>
      <trkpt lat="38.962720" lon="-9.267574">
        <ele>207.089</ele>
        <time>2026-04-30T01:41:40.826489825Z</time>
      </trkpt>
      <trkpt lat="38.962733" lon="-9.267531">
        <ele>206.144</ele>
        <time>2026-04-30T01:42:00.826494384Z</time>
      </trkpt>
      <trkpt lat="38.962734" lon="-9.267499">
        <ele>205.620</ele>
        <time>2026-04-30T01:42:20.826497089Z</time>
      </trkpt>
      <trkpt lat="38.962736" lon="-9.267351">
        <ele>200.995</ele>
        <time>2026-04-30T01:42:40.826499814Z</time>
      </trkpt>
      <trkpt lat="38.962687" lon="-9.267204">
        <ele>197.349</ele>
        <time>2026-04-30T01:43:00.826502509Z</time>
      </trkpt>
      <trkpt lat="38.962672" lon="-9.267123">
        <ele>195.923</ele>
        <time>2026-04-30T01:43:20.826505184Z</time>
      </trkpt>
      <trkpt lat="38.962649" lon="-9.267060">
        <ele>195.109</ele>
        <time>2026-04-30T01:43:40.826507879Z</time>
      </trkpt>
      <trkpt lat="38.962491" lon="-9.266975">
        <ele>197.031</ele>
        <time>2026-04-30T01:44:00.826510564Z</time>
      </trkpt>
      <trkpt lat="38.962423" lon="-9.266938">
        <ele>199.865</ele>
        <time>2026-04-30T01:44:20.826513209Z</time>
      </trkpt>
      <trkpt lat="38.962419" lon="-9.266881">
        <ele>199.660</ele>
        <time>2026-04-30T01:44:40.826515794Z</time>
      </trkpt>
      <trkpt lat="38.962415" lon="-9.266754">
        <ele>198.767</ele>
        <time>2026-04-30T01:45:00.826518459Z</time>
      </trkpt>
      <trkpt lat="38.962483" lon="-9.266566">
        <ele>194.894</ele>
        <time>2026-04-30T01:45:20.826521094Z</time>
      </trkpt>
      <trkpt lat="38.962612" lon="-9.266463">
        <ele>191.221</ele>
        <time>2026-04-30T01:45:40.826523688Z</time>
      </trkpt>
      <trkpt lat="38.962649" lon="-9.266396">
        <ele>190.233</ele>
        <time>2026-04-30T01:46:00.826526343Z</time>
      </trkpt>
      <trkpt lat="38.962647" lon="-9.266305">
        <ele>190.018</ele>
        <time>2026-04-30T01:46:20.826528968Z</time>
      </trkpt>
      <trkpt lat="38.962598" lon="-9.266218">
        <ele>191.124</ele>
        <time>2026-04-30T01:46:40.826536072Z</time>
      </trkpt>
      <trkpt lat="38.962523" lon="-9.266151">
        <ele>193.346</ele>
        <time>2026-04-30T01:47:00.826538827Z</time>
      </trkpt>
      <trkpt lat="38.962417" lon="-9.266048">
        <ele>197.188</ele>
        <time>2026-04-30T01:47:20.826541492Z</time>
      </trkpt>
      <trkpt lat="38.962355" lon="-9.265949">
        <ele>199.516</ele>
        <time>2026-04-30T01:47:40.826544157Z</time>
      </trkpt>
      <trkpt lat="38.962309" lon="-9.265845">
        <ele>201.309</ele>
        <time>2026-04-30T01:48:00.826546852Z</time>
      </trkpt>
      <trkpt lat="38.962294" lon="-9.265749">
        <ele>202.156</ele>
        <time>2026-04-30T01:48:20.826549507Z</time>
      </trkpt>
      <trkpt lat="38.962318" lon="-9.265567">
        <ele>201.550</ele>
        <time>2026-04-30T01:48:40.826552142Z</time>
      </trkpt>
      <trkpt lat="38.962315" lon="-9.265488">
        <ele>201.865</ele>
        <time>2026-04-30T01:49:00.826554917Z</time>
      </trkpt>
      <trkpt lat="38.962320" lon="-9.265422">
        <ele>201.852</ele>
        <time>2026-04-30T01:49:20.826557592Z</time>
      </trkpt>
      <trkpt lat="38.962292" lon="-9.265311">
        <ele>202.979</ele>
        <time>2026-04-30T01:49:40.826560237Z</time>
      </trkpt>
      <trkpt lat="38.962286" lon="-9.265239">
        <ele>203.446</ele>
        <time>2026-04-30T01:50:00.826562872Z</time>
      </trkpt>
      <trkpt lat="38.962383" lon="-9.265085">
        <ele>201.898</ele>
        <time>2026-04-30T01:50:20.826565497Z</time>
      </trkpt>
      <trkpt lat="38.962596" lon="-9.264898">
        <ele>198.593</ele>
        <time>2026-04-30T01:50:40.826568142Z</time>
      </trkpt>
      <trkpt lat="38.962673" lon="-9.264810">
        <ele>198.549</ele>
        <time>2026-04-30T01:51:00.826570857Z</time>
      </trkpt>
      <trkpt lat="38.962727" lon="-9.264706">
        <ele>199.494</ele>
        <time>2026-04-30T01:51:20.826573632Z</time>
      </trkpt>
      <trkpt lat="38.962770" lon="-9.264577">
        <ele>201.357</ele>
        <time>2026-04-30T01:51:40.826576287Z</time>
      </trkpt>
      <trkpt lat="38.962827" lon="-9.264505">
        <ele>201.422</ele>
        <time>2026-04-30T01:52:00.826578912Z</time>
      </trkpt>
      <trkpt lat="38.962775" lon="-9.264483">
        <ele>203.209</ele>
        <time>2026-04-30T01:52:20.826581627Z</time>
      </trkpt>
      <trkpt lat="38.962695" lon="-9.264477">
        <ele>205.171</ele>
        <time>2026-04-30T01:52:40.826584272Z</time>
      </trkpt>
      <trkpt lat="38.962668" lon="-9.264509">
        <ele>205.035</ele>
        <time>2026-04-30T01:53:00.826586907Z</time>
      </trkpt>
      <trkpt lat="38.962591" lon="-9.264526">
        <ele>206.340</ele>
        <time>2026-04-30T01:53:20.826589532Z</time>
      </trkpt>
      <trkpt lat="38.962559" lon="-9.264542">
        <ele>206.697</ele>
        <time>2026-04-30T01:53:40.826592177Z</time>
      </trkpt>
      <trkpt lat="38.962512" lon="-9.264533">
        <ele>207.854</ele>
        <time>2026-04-30T01:54:00.826594821Z</time>
      </trkpt>
      <trkpt lat="38.962445" lon="-9.264494">
        <ele>210.071</ele>
        <time>2026-04-30T01:54:20.826597466Z</time>
      </trkpt>
      <trkpt lat="38.962353" lon="-9.264488">
        <ele>211.833</ele>
        <time>2026-04-30T01:54:40.826600091Z</time>
      </trkpt>
      <trkpt lat="38.962300" lon="-9.264466">
        <ele>213.298</ele>
        <time>2026-04-30T01:55:00.826602726Z</time>
      </trkpt>
      <trkpt lat="38.962286" lon="-9.264436">
        <ele>214.084</ele>
        <time>2026-04-30T01:55:20.826605391Z</time>
      </trkpt>
      <trkpt lat="38.962164" lon="-9.264380">
        <ele>216.914</ele>
        <time>2026-04-30T01:55:40.826608106Z</time>
      </trkpt>
      <trkpt lat="38.962059" lon="-9.264335">
        <ele>218.954</ele>
        <time>2026-04-30T01:56:00.826610801Z</time>
      </trkpt>
      <trkpt lat="38.962033" lon="-9.264304">
        <ele>219.609</ele>
        <time>2026-04-30T01:56:20.826613486Z</time>
      </trkpt>
      <trkpt lat="38.962015" lon="-9.264246">
        <ele>220.509</ele>
        <time>2026-04-30T01:56:40.826616191Z</time>
      </trkpt>
      <trkpt lat="38.961942" lon="-9.264204">
        <ele>221.683</ele>
        <time>2026-04-30T01:57:00.826618836Z</time>
      </trkpt>
      <trkpt lat="38.961873" lon="-9.264195">
        <ele>222.377</ele>
        <time>2026-04-30T01:57:20.826621451Z</time>
      </trkpt>
      <trkpt lat="38.961842" lon="-9.264220">
        <ele>222.422</ele>
        <time>2026-04-30T01:57:40.826624056Z</time>
      </trkpt>
      <trkpt lat="38.961771" lon="-9.264257">
        <ele>222.999</ele>
        <time>2026-04-30T01:58:00.826626771Z</time>
      </trkpt>
      <trkpt lat="38.961725" lon="-9.264222">
        <ele>223.526</ele>
        <time>2026-04-30T01:58:20.826629446Z</time>
      </trkpt>
      <trkpt lat="38.961690" lon="-9.264212">
        <ele>223.833</ele>
        <time>2026-04-30T01:58:40.826632061Z</time>
      </trkpt>
      <trkpt lat="38.961659" lon="-9.264239">
        <ele>224.015</ele>
        <time>2026-04-30T01:59:00.826634706Z</time>
      </trkpt>
      <trkpt lat="38.961630" lon="-9.264269">
        <ele>224.350</ele>
        <time>2026-04-30T01:59:20.826637381Z</time>
      </trkpt>
      <trkpt lat="38.961602" lon="-9.264326">
        <ele>224.696</ele>
        <time>2026-04-30T01:59:40.826640116Z</time>
      </trkpt>
      <trkpt lat="38.961588" lon="-9.264416">
        <ele>225.014</ele>
        <time>2026-04-30T02:00:00.826642861Z</time>
      </trkpt>
      <trkpt lat="38.961578" lon="-9.264457">
        <ele>225.454</ele>
        <time>2026-04-30T02:00:20.826645607Z</time>
      </trkpt>
      <trkpt lat="38.961568" lon="-9.264513">
        <ele>226.109</ele>
        <time>2026-04-30T02:00:40.826648332Z</time>
      </trkpt>
      <trkpt lat="38.961572" lon="-9.264561">
        <ele>226.509</ele>
        <time>2026-04-30T02:01:00.826651077Z</time>
      </trkpt>
      <trkpt lat="38.961568" lon="-9.264615">
        <ele>227.193</ele>
        <time>2026-04-30T02:01:20.826653732Z</time>
      </trkpt>
      <trkpt lat="38.961557" lon="-9.264670">
        <ele>227.847</ele>
        <time>2026-04-30T02:01:40.826656377Z</time>
      </trkpt>
      <trkpt lat="38.961576" lon="-9.264719">
        <ele>227.912</ele>
        <time>2026-04-30T02:02:00.826659002Z</time>
      </trkpt>
      <trkpt lat="38.961549" lon="-9.264798">
        <ele>229.469</ele>
        <time>2026-04-30T02:02:20.826661606Z</time>
      </trkpt>
      <trkpt lat="38.961553" lon="-9.264877">
        <ele>230.176</ele>
        <time>2026-04-30T02:02:40.826664261Z</time>
      </trkpt>
      <trkpt lat="38.961557" lon="-9.264991">
        <ele>231.033</ele>
        <time>2026-04-30T02:03:00.826666886Z</time>
      </trkpt>
      <trkpt lat="38.961568" lon="-9.265045">
        <ele>230.895</ele>
        <time>2026-04-30T02:03:20.826669732Z</time>
      </trkpt>
      <trkpt lat="38.961531" lon="-9.265099">
        <ele>232.720</ele>
        <time>2026-04-30T02:03:40.826672767Z</time>
      </trkpt>
      <trkpt lat="38.961519" lon="-9.265147">
        <ele>233.456</ele>
        <time>2026-04-30T02:04:00.826675512Z</time>
      </trkpt>
      <trkpt lat="38.961468" lon="-9.265212">
        <ele>235.795</ele>
        <time>2026-04-30T02:04:20.826678298Z</time>
      </trkpt>
      <trkpt lat="38.961412" lon="-9.265297">
        <ele>238.349</ele>
        <time>2026-04-30T02:04:40.826680943Z</time>
      </trkpt>
      <trkpt lat="38.961381" lon="-9.265388">
        <ele>240.223</ele>
        <time>2026-04-30T02:05:00.826683618Z</time>
      </trkpt>
      <trkpt lat="38.961405" lon="-9.265503">
        <ele>240.809</ele>
        <time>2026-04-30T02:05:20.826686273Z</time>
      </trkpt>
      <trkpt lat="38.961377" lon="-9.265657">
        <ele>243.121</ele>
        <time>2026-04-30T02:05:40.826688918Z</time>
      </trkpt>
      <trkpt lat="38.961370" lon="-9.265892">
        <ele>246.125</ele>
        <time>2026-04-30T02:06:00.826695861Z</time>
      </trkpt>
      <trkpt lat="38.961363" lon="-9.266026">
        <ele>248.540</ele>
        <time>2026-04-30T02:06:20.826698546Z</time>
      </trkpt>
      <trkpt lat="38.961375" lon="-9.266157">
        <ele>249.997</ele>
        <time>2026-04-30T02:06:40.826701231Z</time>
      </trkpt>
      <trkpt lat="38.961419" lon="-9.266305">
        <ele>248.074</ele>
        <time>2026-04-30T02:07:00.826703916Z</time>
      </trkpt>
      <trkpt lat="38.961398" lon="-9.266485">
        <ele>248.681</ele>
        <time>2026-04-30T02:07:20.826706581Z</time>
      </trkpt>
      <trkpt lat="38.961363" lon="-9.266606">
        <ele>249.323</ele>
        <time>2026-04-30T02:07:40.826709276Z</time>
      </trkpt>
      <trkpt lat="38.961338" lon="-9.266711">
        <ele>249.658</ele>
        <time>2026-04-30T02:08:00.826711921Z</time>
      </trkpt>
      <trkpt lat="38.961333" lon="-9.266788">
        <ele>249.694</ele>
        <time>2026-04-30T02:08:20.826714576Z</time>
      </trkpt>
      <trkpt lat="38.961315" lon="-9.266860">
        <ele>249.889</ele>
        <time>2026-04-30T02:08:40.826717281Z</time>
      </trkpt>
      <trkpt lat="38.961313" lon="-9.266945">
        <ele>249.806</ele>
        <time>2026-04-30T02:09:00.826719986Z</time>
      </trkpt>
      <trkpt lat="38.961354" lon="-9.267063">
        <ele>248.626</ele>
        <time>2026-04-30T02:09:20.826722681Z</time>
      </trkpt>
      <trkpt lat="38.961390" lon="-9.267154">
        <ele>247.509</ele>
        <time>2026-04-30T02:09:40.826725346Z</time>
      </trkpt>
      <trkpt lat="38.961370" lon="-9.267305">
        <ele>246.670</ele>
        <time>2026-04-30T02:10:00.826728071Z</time>
      </trkpt>
      <trkpt lat="38.961276" lon="-9.267375">
        <ele>247.184</ele>
        <time>2026-04-30T02:10:20.826730686Z</time>
      </trkpt>
      <trkpt lat="38.961019" lon="-9.267395">
        <ele>249.929</ele>
        <time>2026-04-30T02:10:40.826733371Z</time>
      </trkpt>
      <trkpt lat="38.960872" lon="-9.267409">
        <ele>252.146</ele>
        <time>2026-04-30T02:11:00.826736056Z</time>
      </trkpt>
      <trkpt lat="38.960811" lon="-9.267330">
        <ele>253.483</ele>
        <time>2026-04-30T02:11:20.826738771Z</time>
      </trkpt>
      <trkpt lat="38.960737" lon="-9.267171">
        <ele>254.830</ele>
        <time>2026-04-30T02:11:40.826741476Z</time>
      </trkpt>
      <trkpt lat="38.960684" lon="-9.267125">
        <ele>255.312</ele>
        <time>2026-04-30T02:12:00.826744151Z</time>
      </trkpt>
      <trkpt lat="38.960500" lon="-9.267129">
        <ele>255.937</ele>
        <time>2026-04-30T02:12:20.826746796Z</time>
      </trkpt>
      <trkpt lat="38.960395" lon="-9.267078">
        <ele>255.453</ele>
        <time>2026-04-30T02:12:40.826749461Z</time>
      </trkpt>
      <trkpt lat="38.960183" lon="-9.267190">
        <ele>253.138</ele>
        <time>2026-04-30T02:13:00.826752256Z</time>
      </trkpt>
      <trkpt lat="38.960041" lon="-9.267402">
        <ele>251.370</ele>
        <time>2026-04-30T02:13:20.826754961Z</time>
      </trkpt>
      <trkpt lat="38.959965" lon="-9.267418">
        <ele>251.017</ele>
        <time>2026-04-30T02:13:40.826757636Z</time>
      </trkpt>
      <trkpt lat="38.959784" lon="-9.267257">
        <ele>251.009</ele>
        <time>2026-04-30T02:14:00.826760301Z</time>
      </trkpt>
      <trkpt lat="38.959597" lon="-9.267072">
        <ele>247.945</ele>
        <time>2026-04-30T02:14:20.826762926Z</time>
      </trkpt>
      <trkpt lat="38.959497" lon="-9.266997">
        <ele>245.579</ele>
        <time>2026-04-30T02:14:40.826765601Z</time>
      </trkpt>
      <trkpt lat="38.959463" lon="-9.266976">
        <ele>244.774</ele>
        <time>2026-04-30T02:15:00.826768276Z</time>
      </trkpt>
      <trkpt lat="38.959305" lon="-9.266985">
        <ele>241.471</ele>
        <time>2026-04-30T02:15:20.826770881Z</time>
      </trkpt>
      <trkpt lat="38.959105" lon="-9.267117">
        <ele>237.448</ele>
        <time>2026-04-30T02:15:40.826773526Z</time>
      </trkpt>
      <trkpt lat="38.959039" lon="-9.267051">
        <ele>234.745</ele>
        <time>2026-04-30T02:16:00.826776171Z</time>
      </trkpt>
      <trkpt lat="38.959022" lon="-9.266979">
        <ele>233.277</ele>
        <time>2026-04-30T02:16:20.826778826Z</time>
      </trkpt>
      <trkpt lat="38.958920" lon="-9.266973">
        <ele>229.692</ele>
        <time>2026-04-30T02:16:40.826781501Z</time>
      </trkpt>
      <trkpt lat="38.958762" lon="-9.266967">
        <ele>224.328</ele>
        <time>2026-04-30T02:17:00.826784156Z</time>
      </trkpt>
      <trkpt lat="38.958656" lon="-9.266943">
        <ele>220.443</ele>
        <time>2026-04-30T02:17:20.826786871Z</time>
      </trkpt>
      <trkpt lat="38.958560" lon="-9.266873">
        <ele>215.664</ele>
        <time>2026-04-30T02:17:40.826789616Z</time>
      </trkpt>
      <trkpt lat="38.958483" lon="-9.266823">
        <ele>211.910</ele>
        <time>2026-04-30T02:18:00.826792331Z</time>
      </trkpt>
      <trkpt lat="38.958489" lon="-9.266699">
        <ele>210.509</ele>
        <time>2026-04-30T02:18:20.826795046Z</time>
      </trkpt>
      <trkpt lat="38.958256" lon="-9.266604">
        <ele>201.636</ele>
        <time>2026-04-30T02:18:40.826797741Z</time>
      </trkpt>
      <trkpt lat="38.958117" lon="-9.266566">
        <ele>196.540</ele>
        <time>2026-04-30T02:19:00.826800386Z</time>
      </trkpt>
      <trkpt lat="38.958027" lon="-9.266453">
        <ele>192.045</ele>
        <time>2026-04-30T02:19:20.826803071Z</time>
      </trkpt>
      <trkpt lat="38.958061" lon="-9.266404">
        <ele>192.462</ele>
        <time>2026-04-30T02:19:40.826805716Z</time>
      </trkpt>
      <trkpt lat="38.957877" lon="-9.266468">
        <ele>187.449</ele>
        <time>2026-04-30T02:20:00.826808361Z</time>
      </trkpt>
      <trkpt lat="38.957747" lon="-9.266434">
        <ele>182.796</ele>
        <time>2026-04-30T02:20:20.826811006Z</time>
      </trkpt>
      <trkpt lat="38.957618" lon="-9.266215">
        <ele>175.978</ele>
        <time>2026-04-30T02:20:40.826813671Z</time>
      </trkpt>
      <trkpt lat="38.957529" lon="-9.266113">
        <ele>171.933</ele>
        <time>2026-04-30T02:21:00.826816336Z</time>
      </trkpt>
      <trkpt lat="38.957541" lon="-9.265879">
        <ele>171.199</ele>
        <time>2026-04-30T02:21:20.826819021Z</time>
      </trkpt>
      <trkpt lat="38.957782" lon="-9.265307">
        <ele>174.281</ele>
        <time>2026-04-30T02:21:40.826821756Z</time>
      </trkpt>
      <trkpt lat="38.957894" lon="-9.264937">
        <ele>172.461</ele>
        <time>2026-04-30T02:22:00.826824451Z</time>
      </trkpt>
      <trkpt lat="38.957961" lon="-9.264701">
        <ele>171.917</ele>
        <time>2026-04-30T02:22:20.826827126Z</time>
      </trkpt>
      <trkpt lat="38.958164" lon="-9.264502">
        <ele>173.309</ele>
        <time>2026-04-30T02:22:40.826829801Z</time>
      </trkpt>
      <trkpt lat="38.957844" lon="-9.264351">
        <ele>169.740</ele>
        <time>2026-04-30T02:23:00.826832546Z</time>
      </trkpt>
      <trkpt lat="38.957523" lon="-9.264225">
        <ele>175.134</ele>
        <time>2026-04-30T02:23:20.826835201Z</time>
      </trkpt>
      <trkpt lat="38.957345" lon="-9.264556">
        <ele>177.799</ele>
        <time>2026-04-30T02:23:40.826837836Z</time>
      </trkpt>
      <trkpt lat="38.957167" lon="-9.264895">
        <ele>179.556</ele>
        <time>2026-04-30T02:24:00.826840461Z</time>
      </trkpt>
      <trkpt lat="38.956951" lon="-9.265290">
        <ele>182.793</ele>
        <time>2026-04-30T02:24:20.826843106Z</time>
      </trkpt>
      <trkpt lat="38.956784" lon="-9.265658">
        <ele>181.760</ele>
        <time>2026-04-30T02:24:40.826845791Z</time>
      </trkpt>
      <trkpt lat="38.956581" lon="-9.265976">
        <ele>183.192</ele>
        <time>2026-04-30T02:25:00.826848416Z</time>
      </trkpt>
      <trkpt lat="38.956485" lon="-9.266011">
        <ele>186.637</ele>
        <time>2026-04-30T02:25:20.826851031Z</time>
      </trkpt>
      <trkpt lat="38.956343" lon="-9.266159">
        <ele>190.633</ele>
        <time>2026-04-30T02:25:40.826858044Z</time>
      </trkpt>
      <trkpt lat="38.956130" lon="-9.266322">
        <ele>202.094</ele>
        <time>2026-04-30T02:26:00.826860809Z</time>
      </trkpt>
      <trkpt lat="38.956210" lon="-9.266583">
        <ele>195.257</ele>
        <time>2026-04-30T02:26:20.826863444Z</time>
      </trkpt>
      <trkpt lat="38.956321" lon="-9.266753">
        <ele>187.022</ele>
        <time>2026-04-30T02:26:40.826866129Z</time>
      </trkpt>
      <trkpt lat="38.956310" lon="-9.266922">
        <ele>187.809</ele>
        <time>2026-04-30T02:27:00.826868844Z</time>
      </trkpt>
      <trkpt lat="38.956335" lon="-9.267127">
        <ele>183.991</ele>
        <time>2026-04-30T02:27:20.826871459Z</time>
      </trkpt>
      <trkpt lat="38.956353" lon="-9.267290">
        <ele>181.325</ele>
        <time>2026-04-30T02:27:40.826874114Z</time>
      </trkpt>
      <trkpt lat="38.956367" lon="-9.267459">
        <ele>179.690</ele>
        <time>2026-04-30T02:28:00.826876819Z</time>
      </trkpt>
      <trkpt lat="38.956263" lon="-9.267837">
        <ele>173.447</ele>
        <time>2026-04-30T02:28:20.826879484Z</time>
      </trkpt>
      <trkpt lat="38.956192" lon="-9.268021">
        <ele>170.064</ele>
        <time>2026-04-30T02:28:40.826882189Z</time>
      </trkpt>
      <trkpt lat="38.956157" lon="-9.268140">
        <ele>168.371</ele>
        <time>2026-04-30T02:29:00.826884904Z</time>
      </trkpt>
      <trkpt lat="38.956127" lon="-9.268459">
        <ele>164.553</ele>
        <time>2026-04-30T02:29:20.826887529Z</time>
      </trkpt>
      <trkpt lat="38.955980" lon="-9.268469">
        <ele>167.118</ele>
        <time>2026-04-30T02:29:40.826890234Z</time>
      </trkpt>
      <trkpt lat="38.955878" lon="-9.268501">
        <ele>168.964</ele>
        <time>2026-04-30T02:30:00.826892889Z</time>
      </trkpt>
      <trkpt lat="38.955763" lon="-9.268591">
        <ele>169.783</ele>
        <time>2026-04-30T02:30:20.826895704Z</time>
      </trkpt>
      <trkpt lat="38.955660" lon="-9.268659">
        <ele>170.325</ele>
        <time>2026-04-30T02:30:40.826898490Z</time>
      </trkpt>
      <trkpt lat="38.955621" lon="-9.268685">
        <ele>170.717</ele>
        <time>2026-04-30T02:31:00.826901215Z</time>
      </trkpt>
      <trkpt lat="38.955532" lon="-9.268697">
        <ele>171.709</ele>
        <time>2026-04-30T02:31:20.826903900Z</time>
      </trkpt>
      <trkpt lat="38.955426" lon="-9.268757">
        <ele>173.930</ele>
        <time>2026-04-30T02:31:40.826906575Z</time>
      </trkpt>
      <trkpt lat="38.955157" lon="-9.268700">
        <ele>179.154</ele>
        <time>2026-04-30T02:32:00.826909210Z</time>
      </trkpt>
      <trkpt lat="38.954963" lon="-9.268689">
        <ele>184.399</ele>
        <time>2026-04-30T02:32:20.826911915Z</time>
      </trkpt>
      <trkpt lat="38.954806" lon="-9.268684">
        <ele>190.056</ele>
        <time>2026-04-30T02:32:40.826914570Z</time>
      </trkpt>
      <trkpt lat="38.954836" lon="-9.268757">
        <ele>190.933</ele>
        <time>2026-04-30T02:33:00.826917235Z</time>
      </trkpt>
      <trkpt lat="38.954911" lon="-9.268991">
        <ele>195.020</ele>
        <time>2026-04-30T02:33:20.826919960Z</time>
      </trkpt>
      <trkpt lat="38.955067" lon="-9.269172">
        <ele>194.892</ele>
        <time>2026-04-30T02:33:40.826922645Z</time>
      </trkpt>
      <trkpt lat="38.955220" lon="-9.269323">
        <ele>194.127</ele>
        <time>2026-04-30T02:34:00.826925360Z</time>
      </trkpt>
      <trkpt lat="38.955358" lon="-9.269529">
        <ele>196.883</ele>
        <time>2026-04-30T02:34:20.826928005Z</time>
      </trkpt>
      <trkpt lat="38.955538" lon="-9.269579">
        <ele>194.339</ele>
        <time>2026-04-30T02:34:40.826930720Z</time>
      </trkpt>
      <trkpt lat="38.955654" lon="-9.269615">
        <ele>192.201</ele>
        <time>2026-04-30T02:35:00.826933445Z</time>
      </trkpt>
      <trkpt lat="38.955641" lon="-9.269673">
        <ele>193.821</ele>
        <time>2026-04-30T02:35:20.826936110Z</time>
      </trkpt>
      <trkpt lat="38.955522" lon="-9.269715">
        <ele>197.709</ele>
        <time>2026-04-30T02:35:40.826938855Z</time>
      </trkpt>
      <trkpt lat="38.955421" lon="-9.269788">
        <ele>200.945</ele>
        <time>2026-04-30T02:36:00.826941540Z</time>
      </trkpt>
      <trkpt lat="38.955360" lon="-9.269944">
        <ele>203.529</ele>
        <time>2026-04-30T02:36:20.826944245Z</time>
      </trkpt>
      <trkpt lat="38.955215" lon="-9.269784">
        <ele>206.874</ele>
        <time>2026-04-30T02:36:40.826946910Z</time>
      </trkpt>
      <trkpt lat="38.955015" lon="-9.269726">
        <ele>213.531</ele>
        <time>2026-04-30T02:37:00.826949696Z</time>
      </trkpt>
      <trkpt lat="38.954867" lon="-9.269595">
        <ele>215.688</ele>
        <time>2026-04-30T02:37:20.826952381Z</time>
      </trkpt>
      <trkpt lat="38.954600" lon="-9.269442">
        <ele>219.115</ele>
        <time>2026-04-30T02:37:40.826955056Z</time>
      </trkpt>
      <trkpt lat="38.954417" lon="-9.269156">
        <ele>216.217</ele>
        <time>2026-04-30T02:38:00.826957711Z</time>
      </trkpt>
      <trkpt lat="38.954313" lon="-9.268852">
        <ele>211.892</ele>
        <time>2026-04-30T02:38:20.826960406Z</time>
      </trkpt>
      <trkpt lat="38.954119" lon="-9.268747">
        <ele>215.268</ele>
        <time>2026-04-30T02:38:40.826963091Z</time>
      </trkpt>
      <trkpt lat="38.953934" lon="-9.268765">
        <ele>220.616</ele>
        <time>2026-04-30T02:39:00.826965846Z</time>
      </trkpt>
      <trkpt lat="38.953781" lon="-9.268716">
        <ele>223.376</ele>
        <time>2026-04-30T02:39:20.826968621Z</time>
      </trkpt>
      <trkpt lat="38.953435" lon="-9.268570">
        <ele>229.313</ele>
        <time>2026-04-30T02:39:40.826971306Z</time>
      </trkpt>
      <trkpt lat="38.953247" lon="-9.268676">
        <ele>235.609</ele>
        <time>2026-04-30T02:40:00.826973981Z</time>
      </trkpt>
      <trkpt lat="38.953034" lon="-9.268811">
        <ele>242.873</ele>
        <time>2026-04-30T02:40:20.826976666Z</time>
      </trkpt>
      <trkpt lat="38.952881" lon="-9.268843">
        <ele>243.827</ele>
        <time>2026-04-30T02:40:40.826979341Z</time>
      </trkpt>
      <trkpt lat="38.952706" lon="-9.268801">
        <ele>243.642</ele>
        <time>2026-04-30T02:41:00.826982036Z</time>
      </trkpt>
      <trkpt lat="38.952312" lon="-9.268526">
        <ele>244.069</ele>
        <time>2026-04-30T02:41:20.826984781Z</time>
      </trkpt>
      <trkpt lat="38.952186" lon="-9.268201">
        <ele>241.696</ele>
        <time>2026-04-30T02:41:40.826987436Z</time>
      </trkpt>
      <trkpt lat="38.952113" lon="-9.267756">
        <ele>237.813</ele>
        <time>2026-04-30T02:42:00.826990111Z</time>
      </trkpt>
      <trkpt lat="38.951987" lon="-9.267525">
        <ele>237.275</ele>
        <time>2026-04-30T02:42:20.826992786Z</time>
      </trkpt>
      <trkpt lat="38.951662" lon="-9.267306">
        <ele>239.270</ele>
        <time>2026-04-30T02:42:40.826995501Z</time>
      </trkpt>
      <trkpt lat="38.951281" lon="-9.266979">
        <ele>241.436</ele>
        <time>2026-04-30T02:43:00.826998176Z</time>
      </trkpt>
      <trkpt lat="38.950998" lon="-9.266656">
        <ele>240.634</ele>
        <time>2026-04-30T02:43:20.827000901Z</time>
      </trkpt>
      <trkpt lat="38.950747" lon="-9.266287">
        <ele>237.455</ele>
        <time>2026-04-30T02:43:40.827003596Z</time>
      </trkpt>
      <trkpt lat="38.950614" lon="-9.266015">
        <ele>236.410</ele>
        <time>2026-04-30T02:44:00.827006281Z</time>
      </trkpt>
      <trkpt lat="38.950391" lon="-9.265812">
        <ele>238.009</ele>
        <time>2026-04-30T02:44:20.827008946Z</time>
      </trkpt>
      <trkpt lat="38.950191" lon="-9.265663">
        <ele>238.845</ele>
        <time>2026-04-30T02:44:40.827011601Z</time>
      </trkpt>
      <trkpt lat="38.950027" lon="-9.265522">
        <ele>239.849</ele>
        <time>2026-04-30T02:45:00.827018454Z</time>
      </trkpt>
      <trkpt lat="38.949791" lon="-9.265448">
        <ele>244.084</ele>
        <time>2026-04-30T02:45:20.827021249Z</time>
      </trkpt>
      <trkpt lat="38.949529" lon="-9.265348">
        <ele>249.141</ele>
        <time>2026-04-30T02:45:40.827023884Z</time>
      </trkpt>
      <trkpt lat="38.949229" lon="-9.265197">
        <ele>254.218</ele>
        <time>2026-04-30T02:46:00.827026529Z</time>
      </trkpt>
      <trkpt lat="38.949313" lon="-9.265008">
        <ele>250.085</ele>
        <time>2026-04-30T02:46:20.827029144Z</time>
      </trkpt>
      <trkpt lat="38.949646" lon="-9.264812">
        <ele>245.017</ele>
        <time>2026-04-30T02:46:40.827031779Z</time>
      </trkpt>
      <trkpt lat="38.950131" lon="-9.264459">
        <ele>239.172</ele>
        <time>2026-04-30T02:47:00.827034434Z</time>
      </trkpt>
      <trkpt lat="38.950339" lon="-9.264125">
        <ele>239.848</ele>
        <time>2026-04-30T02:47:20.827037099Z</time>
      </trkpt>
      <trkpt lat="38.950472" lon="-9.263726">
        <ele>243.156</ele>
        <time>2026-04-30T02:47:40.827039844Z</time>
      </trkpt>
      <trkpt lat="38.950506" lon="-9.263473">
        <ele>244.659</ele>
        <time>2026-04-30T02:48:00.827042549Z</time>
      </trkpt>
      <trkpt lat="38.950676" lon="-9.263285">
        <ele>243.014</ele>
        <time>2026-04-30T02:48:20.827045184Z</time>
      </trkpt>
      <trkpt lat="38.950574" lon="-9.262952">
        <ele>246.509</ele>
        <time>2026-04-30T02:48:40.827047879Z</time>
      </trkpt>
      <trkpt lat="38.950540" lon="-9.262504">
        <ele>245.627</ele>
        <time>2026-04-30T02:49:00.827050524Z</time>
      </trkpt>
      <trkpt lat="38.950473" lon="-9.262290">
        <ele>242.911</ele>
        <time>2026-04-30T02:49:20.827053209Z</time>
      </trkpt>
      <trkpt lat="38.950251" lon="-9.261987">
        <ele>240.366</ele>
        <time>2026-04-30T02:49:40.827055844Z</time>
      </trkpt>
      <trkpt lat="38.950120" lon="-9.261807">
        <ele>237.013</ele>
        <time>2026-04-30T02:50:00.827058579Z</time>
      </trkpt>
      <trkpt lat="38.949896" lon="-9.261706">
        <ele>237.160</ele>
        <time>2026-04-30T02:50:20.827061274Z</time>
      </trkpt>
      <trkpt lat="38.949383" lon="-9.261716">
        <ele>235.257</ele>
        <time>2026-04-30T02:50:40.827063879Z</time>
      </trkpt>
      <trkpt lat="38.949107" lon="-9.261862">
        <ele>234.989</ele>
        <time>2026-04-30T02:51:00.827066494Z</time>
      </trkpt>
      <trkpt lat="38.948728" lon="-9.261984">
        <ele>236.764</ele>
        <time>2026-04-30T02:51:20.827069129Z</time>
      </trkpt>
      <trkpt lat="38.948512" lon="-9.261638">
        <ele>232.260</ele>
        <time>2026-04-30T02:51:40.827071824Z</time>
      </trkpt>
      <trkpt lat="38.948301" lon="-9.261538">
        <ele>231.555</ele>
        <time>2026-04-30T02:52:00.827074519Z</time>
      </trkpt>
      <trkpt lat="38.948117" lon="-9.261542">
        <ele>232.507</ele>
        <time>2026-04-30T02:52:20.827077174Z</time>
      </trkpt>
      <trkpt lat="38.947880" lon="-9.261346">
        <ele>232.117</ele>
        <time>2026-04-30T02:52:40.827079809Z</time>
      </trkpt>
      <trkpt lat="38.947644" lon="-9.261240">
        <ele>233.109</ele>
        <time>2026-04-30T02:53:00.827082514Z</time>
      </trkpt>
      <trkpt lat="38.947519" lon="-9.261175">
        <ele>232.867</ele>
        <time>2026-04-30T02:53:20.827085189Z</time>
      </trkpt>
      <trkpt lat="38.947340" lon="-9.261292">
        <ele>235.021</ele>
        <time>2026-04-30T02:53:40.827087854Z</time>
      </trkpt>
      <trkpt lat="38.947201" lon="-9.261418">
        <ele>237.556</ele>
        <time>2026-04-30T02:54:00.827091391Z</time>
      </trkpt>
      <trkpt lat="38.947054" lon="-9.261810">
        <ele>245.183</ele>
        <time>2026-04-30T02:54:20.827094106Z</time>
      </trkpt>
      <trkpt lat="38.946707" lon="-9.261406">
        <ele>230.010</ele>
        <time>2026-04-30T02:54:40.827096741Z</time>
      </trkpt>
      <trkpt lat="38.946628" lon="-9.261693">
        <ele>232.927</ele>
        <time>2026-04-30T02:55:00.827099366Z</time>
      </trkpt>
      <trkpt lat="38.946486" lon="-9.262045">
        <ele>235.449</ele>
        <time>2026-04-30T02:55:20.827102011Z</time>
      </trkpt>
      <trkpt lat="38.946466" lon="-9.262428">
        <ele>239.624</ele>
        <time>2026-04-30T02:55:40.827104676Z</time>
      </trkpt>
      <trkpt lat="38.946466" lon="-9.262795">
        <ele>241.820</ele>
        <time>2026-04-30T02:56:00.827107351Z</time>
      </trkpt>
      <trkpt lat="38.946441" lon="-9.263211">
        <ele>244.484</ele>
        <time>2026-04-30T02:56:20.827110126Z</time>
      </trkpt>
      <trkpt lat="38.946294" lon="-9.263608">
        <ele>249.907</ele>
        <time>2026-04-30T02:56:40.827112821Z</time>
      </trkpt>
      <trkpt lat="38.946006" lon="-9.263332">
        <ele>242.117</ele>
        <time>2026-04-30T02:57:00.827115516Z</time>
      </trkpt>
      <trkpt lat="38.945994" lon="-9.263241">
        <ele>241.409</ele>
        <time>2026-04-30T02:57:20.827118151Z</time>
      </trkpt>
      <trkpt lat="38.946068" lon="-9.263066">
        <ele>238.730</ele>
        <time>2026-04-30T02:57:40.827120826Z</time>
      </trkpt>
      <trkpt lat="38.946149" lon="-9.262782">
        <ele>237.384</ele>
        <time>2026-04-30T02:58:00.827123471Z</time>
      </trkpt>
      <trkpt lat="38.946162" lon="-9.262495">
        <ele>235.569</ele>
        <time>2026-04-30T02:58:20.827126136Z</time>
      </trkpt>
      <trkpt lat="38.946080" lon="-9.262033">
        <ele>232.516</ele>
        <time>2026-04-30T02:58:40.827128811Z</time>
      </trkpt>
      <trkpt lat="38.946031" lon="-9.261763">
        <ele>234.523</ele>
        <time>2026-04-30T02:59:00.827131466Z</time>
      </trkpt>
      <trkpt lat="38.946040" lon="-9.261544">
        <ele>233.140</ele>
        <time>2026-04-30T02:59:20.827134151Z</time>
      </trkpt>
      <trkpt lat="38.946069" lon="-9.261202">
        <ele>230.452</ele>
        <time>2026-04-30T02:59:40.827136786Z</time>
      </trkpt>
      <trkpt lat="38.946105" lon="-9.261018">
        <ele>229.227</ele>
        <time>2026-04-30T03:00:00.827139421Z</time>
      </trkpt>
      <trkpt lat="38.946112" lon="-9.260860">
        <ele>229.063</ele>
        <time>2026-04-30T03:00:20.827142186Z</time>
      </trkpt>
      <trkpt lat="38.945969" lon="-9.260679">
        <ele>235.725</ele>
        <time>2026-04-30T03:00:40.827144941Z</time>
      </trkpt>
      <trkpt lat="38.945862" lon="-9.260247">
        <ele>244.326</ele>
        <time>2026-04-30T03:01:00.827147606Z</time>
      </trkpt>
      <trkpt lat="38.945757" lon="-9.259802">
        <ele>250.508</ele>
        <time>2026-04-30T03:01:20.827150281Z</time>
      </trkpt>
      <trkpt lat="38.945756" lon="-9.259601">
        <ele>251.609</ele>
        <time>2026-04-30T03:01:40.827152926Z</time>
      </trkpt>
      <trkpt lat="38.945820" lon="-9.259330">
        <ele>251.464</ele>
        <time>2026-04-30T03:02:00.827155601Z</time>
      </trkpt>
      <trkpt lat="38.945876" lon="-9.259084">
        <ele>250.338</ele>
        <time>2026-04-30T03:02:20.827158226Z</time>
      </trkpt>
      <trkpt lat="38.945947" lon="-9.259028">
        <ele>247.563</ele>
        <time>2026-04-30T03:02:40.827160861Z</time>
      </trkpt>
      <trkpt lat="38.946090" lon="-9.259085">
        <ele>241.860</ele>
        <time>2026-04-30T03:03:00.827163556Z</time>
      </trkpt>
      <trkpt lat="38.946531" lon="-9.259087">
        <ele>234.817</ele>
        <time>2026-04-30T03:03:20.827166211Z</time>
      </trkpt>
      <trkpt lat="38.946910" lon="-9.259065">
        <ele>228.724</ele>
        <time>2026-04-30T03:03:40.827168876Z</time>
      </trkpt>
      <trkpt lat="38.947245" lon="-9.259128">
        <ele>221.166</ele>
        <time>2026-04-30T03:04:00.827171571Z</time>
      </trkpt>
      <trkpt lat="38.947412" lon="-9.259085">
        <ele>219.281</ele>
        <time>2026-04-30T03:04:20.827174226Z</time>
      </trkpt>
      <trkpt lat="38.947509" lon="-9.258989">
        <ele>217.977</ele>
        <time>2026-04-30T03:04:40.827181730Z</time>
      </trkpt>
      <trkpt lat="38.947655" lon="-9.258974">
        <ele>215.934</ele>
        <time>2026-04-30T03:05:00.827184485Z</time>
      </trkpt>
      <trkpt lat="38.947786" lon="-9.258950">
        <ele>214.155</ele>
        <time>2026-04-30T03:05:20.827187460Z</time>
      </trkpt>
      <trkpt lat="38.948005" lon="-9.258974">
        <ele>210.810</ele>
        <time>2026-04-30T03:05:40.827190135Z</time>
      </trkpt>
      <trkpt lat="38.948213" lon="-9.259137">
        <ele>206.009</ele>
        <time>2026-04-30T03:06:00.827192820Z</time>
      </trkpt>
      <trkpt lat="38.948403" lon="-9.259071">
        <ele>200.575</ele>
        <time>2026-04-30T03:06:20.827195465Z</time>
      </trkpt>
      <trkpt lat="38.948417" lon="-9.258884">
        <ele>200.819</ele>
        <time>2026-04-30T03:06:40.827198140Z</time>
      </trkpt>
      <trkpt lat="38.948322" lon="-9.258629">
        <ele>202.214</ele>
        <time>2026-04-30T03:07:00.827200835Z</time>
      </trkpt>
      <trkpt lat="38.948020" lon="-9.258412">
        <ele>203.641</ele>
        <time>2026-04-30T03:07:20.827203490Z</time>
      </trkpt>
      <trkpt lat="38.947718" lon="-9.258271">
        <ele>205.768</ele>
        <time>2026-04-30T03:07:40.827206226Z</time>
      </trkpt>
      <trkpt lat="38.947560" lon="-9.258181">
        <ele>206.445</ele>
        <time>2026-04-30T03:08:00.827208981Z</time>
      </trkpt>
      <trkpt lat="38.947328" lon="-9.258116">
        <ele>207.977</ele>
        <time>2026-04-30T03:08:20.827211706Z</time>
      </trkpt>
      <trkpt lat="38.947063" lon="-9.258121">
        <ele>212.592</ele>
        <time>2026-04-30T03:08:40.827214411Z</time>
      </trkpt>
      <trkpt lat="38.946766" lon="-9.258148">
        <ele>220.328</ele>
        <time>2026-04-30T03:09:00.827217136Z</time>
      </trkpt>
      <trkpt lat="38.946491" lon="-9.258231">
        <ele>229.893</ele>
        <time>2026-04-30T03:09:20.827219861Z</time>
      </trkpt>
      <trkpt lat="38.946522" lon="-9.258093">
        <ele>227.565</ele>
        <time>2026-04-30T03:09:40.827222516Z</time>
      </trkpt>
      <trkpt lat="38.946525" lon="-9.257901">
        <ele>227.121</ele>
        <time>2026-04-30T03:10:00.827225151Z</time>
      </trkpt>
      <trkpt lat="38.946534" lon="-9.257664">
        <ele>227.409</ele>
        <time>2026-04-30T03:10:20.827227796Z</time>
      </trkpt>
      <trkpt lat="38.946546" lon="-9.257537">
        <ele>227.691</ele>
        <time>2026-04-30T03:10:40.827230561Z</time>
      </trkpt>
      <trkpt lat="38.946581" lon="-9.257346">
        <ele>225.775</ele>
        <time>2026-04-30T03:11:00.827233186Z</time>
      </trkpt>
      <trkpt lat="38.946549" lon="-9.257167">
        <ele>226.140</ele>
        <time>2026-04-30T03:11:20.827235791Z</time>
      </trkpt>
      <trkpt lat="38.946613" lon="-9.257036">
        <ele>223.437</ele>
        <time>2026-04-30T03:11:40.827238446Z</time>
      </trkpt>
      <trkpt lat="38.946660" lon="-9.256952">
        <ele>221.374</ele>
        <time>2026-04-30T03:12:00.827241071Z</time>
      </trkpt>
      <trkpt lat="38.946699" lon="-9.256821">
        <ele>221.491</ele>
        <time>2026-04-30T03:12:20.827243756Z</time>
      </trkpt>
      <trkpt lat="38.946719" lon="-9.256637">
        <ele>221.963</ele>
        <time>2026-04-30T03:12:40.827246411Z</time>
      </trkpt>
      <trkpt lat="38.946696" lon="-9.256512">
        <ele>221.998</ele>
        <time>2026-04-30T03:13:00.827249046Z</time>
      </trkpt>
      <trkpt lat="38.946629" lon="-9.256315">
        <ele>223.144</ele>
        <time>2026-04-30T03:13:20.827251741Z</time>
      </trkpt>
      <trkpt lat="38.946615" lon="-9.256147">
        <ele>223.466</ele>
        <time>2026-04-30T03:13:40.827254426Z</time>
      </trkpt>
      <trkpt lat="38.946609" lon="-9.255961">
        <ele>223.529</ele>
        <time>2026-04-30T03:14:00.827257151Z</time>
      </trkpt>
      <trkpt lat="38.946498" lon="-9.255805">
        <ele>226.121</ele>
        <time>2026-04-30T03:14:20.827259836Z</time>
      </trkpt>
      <trkpt lat="38.946491" lon="-9.255682">
        <ele>225.509</ele>
        <time>2026-04-30T03:14:40.827262471Z</time>
      </trkpt>
      <trkpt lat="38.946502" lon="-9.255526">
        <ele>224.368</ele>
        <time>2026-04-30T03:15:00.827265086Z</time>
      </trkpt>
      <trkpt lat="38.946434" lon="-9.255352">
        <ele>224.612</ele>
        <time>2026-04-30T03:15:20.827267721Z</time>
      </trkpt>
      <trkpt lat="38.946299" lon="-9.255146">
        <ele>226.337</ele>
        <time>2026-04-30T03:15:40.827270426Z</time>
      </trkpt>
      <trkpt lat="38.946178" lon="-9.255031">
        <ele>227.464</ele>
        <time>2026-04-30T03:16:00.827273051Z</time>
      </trkpt>
      <trkpt lat="38.945928" lon="-9.254922">
        <ele>229.031</ele>
        <time>2026-04-30T03:16:20.827275736Z</time>
      </trkpt>
      <trkpt lat="38.945743" lon="-9.254821">
        <ele>230.498</ele>
        <time>2026-04-30T03:16:40.827278371Z</time>
      </trkpt>
      <trkpt lat="38.945690" lon="-9.254752">
        <ele>230.940</ele>
        <time>2026-04-30T03:17:00.827281036Z</time>
      </trkpt>
      <trkpt lat="38.945804" lon="-9.254610">
        <ele>227.885</ele>
        <time>2026-04-30T03:17:20.827283680Z</time>
      </trkpt>
      <trkpt lat="38.945928" lon="-9.254505">
        <ele>226.711</ele>
        <time>2026-04-30T03:17:40.827286406Z</time>
      </trkpt>
      <trkpt lat="38.945999" lon="-9.254345">
        <ele>226.881</ele>
        <time>2026-04-30T03:18:00.827289101Z</time>
      </trkpt>
      <trkpt lat="38.945953" lon="-9.254184">
        <ele>228.261</ele>
        <time>2026-04-30T03:18:20.827291786Z</time>
      </trkpt>
      <trkpt lat="38.945811" lon="-9.253919">
        <ele>232.417</ele>
        <time>2026-04-30T03:18:40.827294481Z</time>
      </trkpt>
      <trkpt lat="38.945736" lon="-9.253708">
        <ele>235.309</ele>
        <time>2026-04-30T03:19:00.827297186Z</time>
      </trkpt>
      <trkpt lat="38.945697" lon="-9.253534">
        <ele>237.280</ele>
        <time>2026-04-30T03:19:20.827299851Z</time>
      </trkpt>
      <trkpt lat="38.945618" lon="-9.253466">
        <ele>240.384</ele>
        <time>2026-04-30T03:19:40.827302566Z</time>
      </trkpt>
      <trkpt lat="38.945533" lon="-9.253594">
        <ele>242.949</ele>
        <time>2026-04-30T03:20:00.827305231Z</time>
      </trkpt>
      <trkpt lat="38.945458" lon="-9.253713">
        <ele>244.736</ele>
        <time>2026-04-30T03:20:20.827307906Z</time>
      </trkpt>
      <trkpt lat="38.945380" lon="-9.253850">
        <ele>246.133</ele>
        <time>2026-04-30T03:20:40.827310611Z</time>
      </trkpt>
      <trkpt lat="38.945223" lon="-9.253983">
        <ele>249.530</ele>
        <time>2026-04-30T03:21:00.827313286Z</time>
      </trkpt>
      <trkpt lat="38.945112" lon="-9.253996">
        <ele>252.432</ele>
        <time>2026-04-30T03:21:20.827315951Z</time>
      </trkpt>
      <trkpt lat="38.944970" lon="-9.253969">
        <ele>256.427</ele>
        <time>2026-04-30T03:21:40.827318596Z</time>
      </trkpt>
      <trkpt lat="38.944823" lon="-9.253983">
        <ele>258.813</ele>
        <time>2026-04-30T03:22:00.827321281Z</time>
      </trkpt>
      <trkpt lat="38.944685" lon="-9.253929">
        <ele>261.423</ele>
        <time>2026-04-30T03:22:20.827324066Z</time>
      </trkpt>
      <trkpt lat="38.944549" lon="-9.253760">
        <ele>263.283</ele>
        <time>2026-04-30T03:22:40.827326751Z</time>
      </trkpt>
      <trkpt lat="38.944485" lon="-9.253535">
        <ele>263.011</ele>
        <time>2026-04-30T03:23:00.827329456Z</time>
      </trkpt>
      <trkpt lat="38.944410" lon="-9.253641">
        <ele>264.409</ele>
        <time>2026-04-30T03:23:20.827332131Z</time>
      </trkpt>
      <trkpt lat="38.944527" lon="-9.254042">
        <ele>262.994</ele>
        <time>2026-04-30T03:23:40.827334806Z</time>
      </trkpt>
      <trkpt lat="38.944731" lon="-9.254818">
        <ele>258.488</ele>
        <time>2026-04-30T03:24:00.827341729Z</time>
      </trkpt>
      <trkpt lat="38.944896" lon="-9.255577">
        <ele>260.053</ele>
        <time>2026-04-30T03:24:20.827344514Z</time>
      </trkpt>
      <trkpt lat="38.944983" lon="-9.255991">
        <ele>263.150</ele>
        <time>2026-04-30T03:24:40.827347219Z</time>
      </trkpt>
      <trkpt lat="38.945060" lon="-9.256156">
        <ele>263.627</ele>
        <time>2026-04-30T03:25:00.827349844Z</time>
      </trkpt>
      <trkpt lat="38.945179" lon="-9.256254">
        <ele>263.424</ele>
        <time>2026-04-30T03:25:20.827352449Z</time>
      </trkpt>
      <trkpt lat="38.945234" lon="-9.256478">
        <ele>262.926</ele>
        <time>2026-04-30T03:25:40.827355134Z</time>
      </trkpt>
      <trkpt lat="38.945320" lon="-9.256780">
        <ele>262.811</ele>
        <time>2026-04-30T03:26:00.827357789Z</time>
      </trkpt>
      <trkpt lat="38.945369" lon="-9.256974">
        <ele>261.837</ele>
        <time>2026-04-30T03:26:20.827360404Z</time>
      </trkpt>
      <trkpt lat="38.945228" lon="-9.257539">
        <ele>268.113</ele>
        <time>2026-04-30T03:26:40.827363129Z</time>
      </trkpt>
      <trkpt lat="38.945277" lon="-9.257796">
        <ele>266.943</ele>
        <time>2026-04-30T03:27:00.827365814Z</time>
      </trkpt>
      <trkpt lat="38.945204" lon="-9.258458">
        <ele>265.407</ele>
        <time>2026-04-30T03:27:20.827368469Z</time>
      </trkpt>
      <trkpt lat="38.945161" lon="-9.258736">
        <ele>266.809</ele>
        <time>2026-04-30T03:27:40.827371094Z</time>
      </trkpt>
      <trkpt lat="38.945204" lon="-9.259015">
        <ele>268.633</ele>
        <time>2026-04-30T03:28:00.827373719Z</time>
      </trkpt>
      <trkpt lat="38.945271" lon="-9.259211">
        <ele>269.067</ele>
        <time>2026-04-30T03:28:20.827376344Z</time>
      </trkpt>
      <trkpt lat="38.945295" lon="-9.259634">
        <ele>265.592</ele>
        <time>2026-04-30T03:28:40.827378979Z</time>
      </trkpt>
      <trkpt lat="38.945246" lon="-9.259933">
        <ele>263.229</ele>
        <time>2026-04-30T03:29:00.827381604Z</time>
      </trkpt>
      <trkpt lat="38.945301" lon="-9.260216">
        <ele>259.176</ele>
        <time>2026-04-30T03:29:20.827384219Z</time>
      </trkpt>
      <trkpt lat="38.945246" lon="-9.260478">
        <ele>260.053</ele>
        <time>2026-04-30T03:29:40.827386854Z</time>
      </trkpt>
      <trkpt lat="38.945252" lon="-9.260792">
        <ele>260.225</ele>
        <time>2026-04-30T03:30:00.827389488Z</time>
      </trkpt>
      <trkpt lat="38.945292" lon="-9.260975">
        <ele>259.160</ele>
        <time>2026-04-30T03:30:20.827392133Z</time>
      </trkpt>
      <trkpt lat="38.945398" lon="-9.261379">
        <ele>260.536</ele>
        <time>2026-04-30T03:30:40.827394768Z</time>
      </trkpt>
      <trkpt lat="38.945484" lon="-9.261705">
        <ele>260.442</ele>
        <time>2026-04-30T03:31:00.827397483Z</time>
      </trkpt>
      <trkpt lat="38.945462" lon="-9.262082">
        <ele>258.622</ele>
        <time>2026-04-30T03:31:20.827400128Z</time>
      </trkpt>
      <trkpt lat="38.945278" lon="-9.262492">
        <ele>258.114</ele>
        <time>2026-04-30T03:31:40.827402763Z</time>
      </trkpt>
      <trkpt lat="38.945189" lon="-9.262753">
        <ele>255.009</ele>
        <time>2026-04-30T03:32:00.827405448Z</time>
      </trkpt>
      <trkpt lat="38.945054" lon="-9.262930">
        <ele>255.266</ele>
        <time>2026-04-30T03:32:20.827408123Z</time>
      </trkpt>
      <trkpt lat="38.944929" lon="-9.263045">
        <ele>257.520</ele>
        <time>2026-04-30T03:32:40.827410808Z</time>
      </trkpt>
      <trkpt lat="38.944733" lon="-9.263175">
        <ele>262.765</ele>
        <time>2026-04-30T03:33:00.827413463Z</time>
      </trkpt>
      <trkpt lat="38.944580" lon="-9.263271">
        <ele>265.652</ele>
        <time>2026-04-30T03:33:20.827416178Z</time>
      </trkpt>
      <trkpt lat="38.944444" lon="-9.263276">
        <ele>270.839</ele>
        <time>2026-04-30T03:33:40.827418853Z</time>
      </trkpt>
      <trkpt lat="38.944210" lon="-9.263044">
        <ele>275.136</ele>
        <time>2026-04-30T03:34:00.827421478Z</time>
      </trkpt>
      <trkpt lat="38.944106" lon="-9.262870">
        <ele>278.838</ele>
        <time>2026-04-30T03:34:20.827424133Z</time>
      </trkpt>
      <trkpt lat="38.943999" lon="-9.262673">
        <ele>282.523</ele>
        <time>2026-04-30T03:34:40.827426808Z</time>
      </trkpt>
      <trkpt lat="38.943800" lon="-9.262302">
        <ele>290.039</ele>
        <time>2026-04-30T03:35:00.827429433Z</time>
      </trkpt>
      <trkpt lat="38.943738" lon="-9.261791">
        <ele>297.253</ele>
        <time>2026-04-30T03:35:20.827432188Z</time>
      </trkpt>
      <trkpt lat="38.943810" lon="-9.261242">
        <ele>306.404</ele>
        <time>2026-04-30T03:35:40.827434964Z</time>
      </trkpt>
      <trkpt lat="38.943887" lon="-9.260626">
        <ele>315.714</ele>
        <time>2026-04-30T03:36:00.827437649Z</time>
      </trkpt>
      <trkpt lat="38.943814" lon="-9.259674">
        <ele>322.509</ele>
        <time>2026-04-30T03:36:20.827440314Z</time>
      </trkpt>
      <trkpt lat="38.943824" lon="-9.259282">
        <ele>321.927</ele>
        <time>2026-04-30T03:36:40.827442938Z</time>
      </trkpt>
      <trkpt lat="38.943850" lon="-9.258895">
        <ele>320.031</ele>
        <time>2026-04-30T03:37:00.827445563Z</time>
      </trkpt>
      <trkpt lat="38.943833" lon="-9.258745">
        <ele>319.376</ele>
        <time>2026-04-30T03:37:20.827448188Z</time>
      </trkpt>
      <trkpt lat="38.943704" lon="-9.258453">
        <ele>318.733</ele>
        <time>2026-04-30T03:37:40.827450793Z</time>
      </trkpt>
      <trkpt lat="38.943688" lon="-9.258190">
        <ele>314.780</ele>
        <time>2026-04-30T03:38:00.827453468Z</time>
      </trkpt>
      <trkpt lat="38.943656" lon="-9.257974">
        <ele>311.287</ele>
        <time>2026-04-30T03:38:20.827456063Z</time>
      </trkpt>
      <trkpt lat="38.943490" lon="-9.257794">
        <ele>310.079</ele>
        <time>2026-04-30T03:38:40.827458658Z</time>
      </trkpt>
      <trkpt lat="38.943336" lon="-9.257642">
        <ele>310.564</ele>
        <time>2026-04-30T03:39:00.827461313Z</time>
      </trkpt>
      <trkpt lat="38.943255" lon="-9.257487">
        <ele>310.710</ele>
        <time>2026-04-30T03:39:20.827463978Z</time>
      </trkpt>
      <trkpt lat="38.943270" lon="-9.257355">
        <ele>310.287</ele>
        <time>2026-04-30T03:39:40.827466703Z</time>
      </trkpt>
      <trkpt lat="38.943336" lon="-9.257250">
        <ele>309.042</ele>
        <time>2026-04-30T03:40:00.827469388Z</time>
      </trkpt>
      <trkpt lat="38.943440" lon="-9.257200">
        <ele>307.626</ele>
        <time>2026-04-30T03:40:20.827472083Z</time>
      </trkpt>
      <trkpt lat="38.943494" lon="-9.257109">
        <ele>307.309</ele>
        <time>2026-04-30T03:40:40.827474778Z</time>
      </trkpt>
      <trkpt lat="38.943580" lon="-9.256705">
        <ele>306.570</ele>
        <time>2026-04-30T03:41:00.827477413Z</time>
      </trkpt>
      <trkpt lat="38.943712" lon="-9.256377">
        <ele>299.994</ele>
        <time>2026-04-30T03:41:20.827480008Z</time>
      </trkpt>
      <trkpt lat="38.943787" lon="-9.256041">
        <ele>294.039</ele>
        <time>2026-04-30T03:41:40.827482623Z</time>
      </trkpt>
      <trkpt lat="38.943845" lon="-9.255740">
        <ele>291.116</ele>
        <time>2026-04-30T03:42:00.827485278Z</time>
      </trkpt>
      <trkpt lat="38.943992" lon="-9.255542">
        <ele>286.143</ele>
        <time>2026-04-30T03:42:20.827488404Z</time>
      </trkpt>
      <trkpt lat="38.944081" lon="-9.255376">
        <ele>280.380</ele>
        <time>2026-04-30T03:42:40.827493794Z</time>
      </trkpt>
      <trkpt lat="38.944081" lon="-9.255210">
        <ele>278.442</ele>
        <time>2026-04-30T03:43:00.827497350Z</time>
      </trkpt>
      <trkpt lat="38.943931" lon="-9.254844">
        <ele>279.077</ele>
        <time>2026-04-30T03:43:20.827500015Z</time>
      </trkpt>
      <trkpt lat="38.943786" lon="-9.254396">
        <ele>274.083</ele>
        <time>2026-04-30T03:43:40.827506968Z</time>
      </trkpt>
      <trkpt lat="38.943741" lon="-9.254208">
        <ele>272.863</ele>
        <time>2026-04-30T03:44:00.827509723Z</time>
      </trkpt>
      <trkpt lat="38.943620" lon="-9.254149">
        <ele>272.944</ele>
        <time>2026-04-30T03:44:20.827512479Z</time>
      </trkpt>
      <trkpt lat="38.943546" lon="-9.254182">
        <ele>273.418</ele>
        <time>2026-04-30T03:44:40.827515124Z</time>
      </trkpt>
      <trkpt lat="38.943500" lon="-9.254367">
        <ele>275.109</ele>
        <time>2026-04-30T03:45:00.827517809Z</time>
      </trkpt>
      <trkpt lat="38.943514" lon="-9.254625">
        <ele>278.558</ele>
        <time>2026-04-30T03:45:20.827520474Z</time>
      </trkpt>
      <trkpt lat="38.943450" lon="-9.254841">
        <ele>282.412</ele>
        <time>2026-04-30T03:45:40.827523159Z</time>
      </trkpt>
      <trkpt lat="38.943215" lon="-9.255164">
        <ele>288.367</ele>
        <time>2026-04-30T03:46:00.827525884Z</time>
      </trkpt>
      <trkpt lat="38.942651" lon="-9.255624">
        <ele>304.154</ele>
        <time>2026-04-30T03:46:20.827528749Z</time>
      </trkpt>
      <trkpt lat="38.942255" lon="-9.256078">
        <ele>322.581</ele>
        <time>2026-04-30T03:46:40.827531404Z</time>
      </trkpt>
      <trkpt lat="38.942309" lon="-9.256525">
        <ele>326.098</ele>
        <time>2026-04-30T03:47:00.827534059Z</time>
      </trkpt>
      <trkpt lat="38.942327" lon="-9.256924">
        <ele>330.120</ele>
        <time>2026-04-30T03:47:20.827536774Z</time>
      </trkpt>
      <trkpt lat="38.942350" lon="-9.257132">
        <ele>331.895</ele>
        <time>2026-04-30T03:47:40.827539449Z</time>
      </trkpt>
      <trkpt lat="38.942414" lon="-9.257406">
        <ele>332.631</ele>
        <time>2026-04-30T03:48:00.827542114Z</time>
      </trkpt>
      <trkpt lat="38.942401" lon="-9.257480">
        <ele>333.448</ele>
        <time>2026-04-30T03:48:20.827544909Z</time>
      </trkpt>
      <trkpt lat="38.942158" lon="-9.257588">
        <ele>340.461</ele>
        <time>2026-04-30T03:48:40.827547634Z</time>
      </trkpt>
      <trkpt lat="38.941917" lon="-9.257686">
        <ele>348.417</ele>
        <time>2026-04-30T03:49:00.827550319Z</time>
      </trkpt>
      <trkpt lat="38.941973" lon="-9.258119">
        <ele>349.709</ele>
        <time>2026-04-30T03:49:20.827552974Z</time>
      </trkpt>
      <trkpt lat="38.942041" lon="-9.258554">
        <ele>346.966</ele>
        <time>2026-04-30T03:49:40.827555619Z</time>
      </trkpt>
      <trkpt lat="38.942079" lon="-9.258744">
        <ele>346.130</ele>
        <time>2026-04-30T03:50:00.827558324Z</time>
      </trkpt>
      <trkpt lat="38.942087" lon="-9.258915">
        <ele>346.315</ele>
        <time>2026-04-30T03:50:20.827560969Z</time>
      </trkpt>
      <trkpt lat="38.942073" lon="-9.258964">
        <ele>346.372</ele>
        <time>2026-04-30T03:50:40.827563634Z</time>
      </trkpt>
      <trkpt lat="38.941962" lon="-9.258855">
        <ele>349.589</ele>
        <time>2026-04-30T03:51:00.827566319Z</time>
      </trkpt>
      <trkpt lat="38.941907" lon="-9.258785">
        <ele>350.646</ele>
        <time>2026-04-30T03:51:20.827569004Z</time>
      </trkpt>
      <trkpt lat="38.941833" lon="-9.258765">
        <ele>352.058</ele>
        <time>2026-04-30T03:51:40.827571649Z</time>
      </trkpt>
      <trkpt lat="38.941764" lon="-9.258680">
        <ele>353.643</ele>
        <time>2026-04-30T03:52:00.827574354Z</time>
      </trkpt>
      <trkpt lat="38.941706" lon="-9.258626">
        <ele>355.179</ele>
        <time>2026-04-30T03:52:20.827577019Z</time>
      </trkpt>
      <trkpt lat="38.941697" lon="-9.258597">
        <ele>355.468</ele>
        <time>2026-04-30T03:52:40.827579795Z</time>
      </trkpt>
      <trkpt lat="38.941700" lon="-9.258520">
        <ele>355.642</ele>
        <time>2026-04-30T03:53:00.827582510Z</time>
      </trkpt>
      <trkpt lat="38.941730" lon="-9.258481">
        <ele>355.026</ele>
        <time>2026-04-30T03:53:20.827585215Z</time>
      </trkpt>
      <trkpt lat="38.941768" lon="-9.258412">
        <ele>354.309</ele>
        <time>2026-04-30T03:53:40.827587910Z</time>
      </trkpt>
      <trkpt lat="38.941754" lon="-9.258354">
        <ele>354.768</ele>
        <time>2026-04-30T03:54:00.827590595Z</time>
      </trkpt>
      <trkpt lat="38.941789" lon="-9.258311">
        <ele>354.052</ele>
        <time>2026-04-30T03:54:20.827593310Z</time>
      </trkpt>
      <trkpt lat="38.941780" lon="-9.258226">
        <ele>354.587</ele>
        <time>2026-04-30T03:54:40.827595985Z</time>
      </trkpt>
      <trkpt lat="38.941799" lon="-9.258142">
        <ele>354.494</ele>
        <time>2026-04-30T03:55:00.827598690Z</time>
      </trkpt>
      <trkpt lat="38.941788" lon="-9.258109">
        <ele>354.821</ele>
        <time>2026-04-30T03:55:20.827601365Z</time>
      </trkpt>
      <trkpt lat="38.941797" lon="-9.258030">
        <ele>354.518</ele>
        <time>2026-04-30T03:55:40.827604010Z</time>
      </trkpt>
      <trkpt lat="38.941814" lon="-9.257994">
        <ele>353.840</ele>
        <time>2026-04-30T03:56:00.827606665Z</time>
      </trkpt>
      <trkpt lat="38.941839" lon="-9.257978">
        <ele>353.125</ele>
        <time>2026-04-30T03:56:20.827609320Z</time>
      </trkpt>
      <trkpt lat="38.941845" lon="-9.257907">
        <ele>352.441</ele>
        <time>2026-04-30T03:56:40.827612025Z</time>
      </trkpt>
      <trkpt lat="38.941844" lon="-9.257870">
        <ele>352.292</ele>
        <time>2026-04-30T03:57:00.827614860Z</time>
      </trkpt>
      <trkpt lat="38.941820" lon="-9.257820">
        <ele>352.473</ele>
        <time>2026-04-30T03:57:20.827617575Z</time>
      </trkpt>
      <trkpt lat="38.941788" lon="-9.257772">
        <ele>352.920</ele>
        <time>2026-04-30T03:57:40.827620250Z</time>
      </trkpt>
      <trkpt lat="38.941785" lon="-9.257741">
        <ele>352.609</ele>
        <time>2026-04-30T03:58:00.827622955Z</time>
      </trkpt>
      <trkpt lat="38.941789" lon="-9.257710">
        <ele>352.281</ele>
        <time>2026-04-30T03:58:20.827625721Z</time>
      </trkpt>
      <trkpt lat="38.941764" lon="-9.257590">
        <ele>351.765</ele>
        <time>2026-04-30T03:58:40.827628386Z</time>
      </trkpt>
      <trkpt lat="38.941736" lon="-9.257569">
        <ele>352.410</ele>
        <time>2026-04-30T03:59:00.827631071Z</time>
      </trkpt>
      <trkpt lat="38.941695" lon="-9.257562">
        <ele>353.647</ele>
        <time>2026-04-30T03:59:20.827633736Z</time>
      </trkpt>
      <trkpt lat="38.941681" lon="-9.257582">
        <ele>354.294</ele>
        <time>2026-04-30T03:59:40.827636431Z</time>
      </trkpt>
      <trkpt lat="38.941674" lon="-9.257593">
        <ele>354.561</ele>
        <time>2026-04-30T04:00:00.827639116Z</time>
      </trkpt>
      <trkpt lat="38.941628" lon="-9.257600">
        <ele>355.553</ele>
        <time>2026-04-30T04:00:20.827641871Z</time>
      </trkpt>
      <trkpt lat="38.941580" lon="-9.257637">
        <ele>356.798</ele>
        <time>2026-04-30T04:00:40.827644546Z</time>
      </trkpt>
      <trkpt lat="38.941557" lon="-9.257665">
        <ele>357.424</ele>
        <time>2026-04-30T04:01:00.827647201Z</time>
      </trkpt>
      <trkpt lat="38.941545" lon="-9.257687">
        <ele>357.864</ele>
        <time>2026-04-30T04:01:20.827649986Z</time>
      </trkpt>
      <trkpt lat="38.941510" lon="-9.257721">
        <ele>358.906</ele>
        <time>2026-04-30T04:01:40.827652671Z</time>
      </trkpt>
      <trkpt lat="38.941512" lon="-9.257732">
        <ele>358.916</ele>
        <time>2026-04-30T04:02:00.827655396Z</time>
      </trkpt>
      <trkpt lat="38.941493" lon="-9.257757">
        <ele>359.609</ele>
        <time>2026-04-30T04:02:20.827658051Z</time>
      </trkpt>
      <trkpt lat="38.941470" lon="-9.257762">
        <ele>360.168</ele>
        <time>2026-04-30T04:02:40.827660756Z</time>
      </trkpt>
      <trkpt lat="38.941444" lon="-9.257791">
        <ele>360.972</ele>
        <time>2026-04-30T04:03:00.827668030Z</time>
      </trkpt>
      <trkpt lat="38.941406" lon="-9.257783">
        <ele>361.777</ele>
        <time>2026-04-30T04:03:20.827670795Z</time>
      </trkpt>
      <trkpt lat="38.941363" lon="-9.257783">
        <ele>362.274</ele>
        <time>2026-04-30T04:03:40.827673490Z</time>
      </trkpt>
      <trkpt lat="38.941316" lon="-9.257806">
        <ele>362.781</ele>
        <time>2026-04-30T04:04:00.827676155Z</time>
      </trkpt>
      <trkpt lat="38.941316" lon="-9.257861">
        <ele>362.938</ele>
        <time>2026-04-30T04:04:20.827678810Z</time>
      </trkpt>
      <trkpt lat="38.941299" lon="-9.257867">
        <ele>363.110</ele>
        <time>2026-04-30T04:04:40.827682106Z</time>
      </trkpt>
      <trkpt lat="38.941252" lon="-9.257895">
        <ele>363.645</ele>
        <time>2026-04-30T04:05:00.827684781Z</time>
      </trkpt>
      <trkpt lat="38.941223" lon="-9.257919">
        <ele>364.071</ele>
        <time>2026-04-30T04:05:20.827687476Z</time>
      </trkpt>
      <trkpt lat="38.941193" lon="-9.257966">
        <ele>364.642</ele>
        <time>2026-04-30T04:05:40.827690281Z</time>
      </trkpt>
      <trkpt lat="38.941161" lon="-9.258034">
        <ele>365.322</ele>
        <time>2026-04-30T04:06:00.827692956Z</time>
      </trkpt>
      <trkpt lat="38.941129" lon="-9.258102">
        <ele>365.714</ele>
        <time>2026-04-30T04:06:20.827695691Z</time>
      </trkpt>
      <trkpt lat="38.941111" lon="-9.258186">
        <ele>365.509</ele>
        <time>2026-04-30T04:06:40.827698386Z</time>
      </trkpt>
      <trkpt lat="38.941113" lon="-9.258233">
        <ele>365.376</ele>
        <time>2026-04-30T04:07:00.827701031Z</time>
      </trkpt>
      <trkpt lat="38.941116" lon="-9.258281">
        <ele>365.240</ele>
        <time>2026-04-30T04:07:20.827703706Z</time>
      </trkpt>
      <trkpt lat="38.941135" lon="-9.258341">
        <ele>364.835</ele>
        <time>2026-04-30T04:07:40.827706341Z</time>
      </trkpt>
      <trkpt lat="38.941168" lon="-9.258346">
        <ele>364.792</ele>
        <time>2026-04-30T04:08:00.827709026Z</time>
      </trkpt>
      <trkpt lat="38.941203" lon="-9.258378">
        <ele>364.219</ele>
        <time>2026-04-30T04:08:20.827711671Z</time>
      </trkpt>
      <trkpt lat="38.941204" lon="-9.258436">
        <ele>363.686</ele>
        <time>2026-04-30T04:08:40.827714336Z</time>
      </trkpt>
      <trkpt lat="38.941214" lon="-9.258594">
        <ele>361.828</ele>
        <time>2026-04-30T04:09:00.827716991Z</time>
      </trkpt>
      <trkpt lat="38.941221" lon="-9.258760">
        <ele>359.553</ele>
        <time>2026-04-30T04:09:20.827719686Z</time>
      </trkpt>
      <trkpt lat="38.941188" lon="-9.258995">
        <ele>356.569</ele>
        <time>2026-04-30T04:09:40.827722331Z</time>
      </trkpt>
      <trkpt lat="38.941139" lon="-9.259290">
        <ele>353.068</ele>
        <time>2026-04-30T04:10:00.827725076Z</time>
      </trkpt>
      <trkpt lat="38.941069" lon="-9.259647">
        <ele>348.342</ele>
        <time>2026-04-30T04:10:20.827727771Z</time>
      </trkpt>
      <trkpt lat="38.941015" lon="-9.259919">
        <ele>344.626</ele>
        <time>2026-04-30T04:10:40.827730446Z</time>
      </trkpt>
      <trkpt lat="38.940968" lon="-9.260115">
        <ele>342.109</ele>
        <time>2026-04-30T04:11:00.827733132Z</time>
      </trkpt>
      <trkpt lat="38.940861" lon="-9.260416">
        <ele>338.448</ele>
        <time>2026-04-30T04:11:20.827735837Z</time>
      </trkpt>
      <trkpt lat="38.940739" lon="-9.260785">
        <ele>334.342</ele>
        <time>2026-04-30T04:11:40.827738461Z</time>
      </trkpt>
      <trkpt lat="38.940638" lon="-9.261140">
        <ele>330.577</ele>
        <time>2026-04-30T04:12:00.827741177Z</time>
      </trkpt>
      <trkpt lat="38.940517" lon="-9.261564">
        <ele>328.394</ele>
        <time>2026-04-30T04:12:20.827743852Z</time>
      </trkpt>
      <trkpt lat="38.940467" lon="-9.261721">
        <ele>327.741</ele>
        <time>2026-04-30T04:12:40.827746607Z</time>
      </trkpt>
      <trkpt lat="38.940382" lon="-9.261945">
        <ele>327.218</ele>
        <time>2026-04-30T04:13:00.827749262Z</time>
      </trkpt>
      <trkpt lat="38.940309" lon="-9.262013">
        <ele>327.710</ele>
        <time>2026-04-30T04:13:20.827751967Z</time>
      </trkpt>
      <trkpt lat="38.940219" lon="-9.262050">
        <ele>327.975</ele>
        <time>2026-04-30T04:13:40.827754652Z</time>
      </trkpt>
      <trkpt lat="38.939979" lon="-9.261960">
        <ele>327.051</ele>
        <time>2026-04-30T04:14:00.827757387Z</time>
      </trkpt>
      <trkpt lat="38.939875" lon="-9.262258">
        <ele>328.913</ele>
        <time>2026-04-30T04:14:20.827760152Z</time>
      </trkpt>
      <trkpt lat="38.939545" lon="-9.262702">
        <ele>331.643</ele>
        <time>2026-04-30T04:14:40.827762857Z</time>
      </trkpt>
      <trkpt lat="38.939185" lon="-9.263186">
        <ele>333.507</ele>
        <time>2026-04-30T04:15:00.827765542Z</time>
      </trkpt>
      <trkpt lat="38.938920" lon="-9.263393">
        <ele>329.209</ele>
        <time>2026-04-30T04:15:20.827768297Z</time>
      </trkpt>
      <trkpt lat="38.937970" lon="-9.263642">
        <ele>317.753</ele>
        <time>2026-04-30T04:15:40.827771022Z</time>
      </trkpt>
      <trkpt lat="38.937610" lon="-9.263770">
        <ele>315.297</ele>
        <time>2026-04-30T04:16:00.827773687Z</time>
      </trkpt>
      <trkpt lat="38.937043" lon="-9.263895">
        <ele>313.022</ele>
        <time>2026-04-30T04:16:20.827776352Z</time>
      </trkpt>
      <trkpt lat="38.936571" lon="-9.264134">
        <ele>312.089</ele>
        <time>2026-04-30T04:16:40.827779067Z</time>
      </trkpt>
      <trkpt lat="38.936111" lon="-9.264330">
        <ele>309.486</ele>
        <time>2026-04-30T04:17:00.827781712Z</time>
      </trkpt>
      <trkpt lat="38.935663" lon="-9.264254">
        <ele>304.293</ele>
        <time>2026-04-30T04:17:20.827784417Z</time>
      </trkpt>
      <trkpt lat="38.935210" lon="-9.264179">
        <ele>297.635</ele>
        <time>2026-04-30T04:17:40.827787082Z</time>
      </trkpt>
      <trkpt lat="38.935035" lon="-9.264244">
        <ele>296.590</ele>
        <time>2026-04-30T04:18:00.827789958Z</time>
      </trkpt>
      <trkpt lat="38.934767" lon="-9.264051">
        <ele>292.256</ele>
        <time>2026-04-30T04:18:20.827792643Z</time>
      </trkpt>
      <trkpt lat="38.934520" lon="-9.263912">
        <ele>288.897</ele>
        <time>2026-04-30T04:18:40.827795448Z</time>
      </trkpt>
      <trkpt lat="38.934276" lon="-9.263838">
        <ele>287.823</ele>
        <time>2026-04-30T04:19:00.827798193Z</time>
      </trkpt>
      <trkpt lat="38.933902" lon="-9.263891">
        <ele>288.025</ele>
        <time>2026-04-30T04:19:20.827800888Z</time>
      </trkpt>
      <trkpt lat="38.933601" lon="-9.264075">
        <ele>289.909</ele>
        <time>2026-04-30T04:19:40.827803573Z</time>
      </trkpt>
      <trkpt lat="38.933487" lon="-9.264078">
        <ele>289.161</ele>
        <time>2026-04-30T04:20:00.827806238Z</time>
      </trkpt>
      <trkpt lat="38.933088" lon="-9.263703">
        <ele>282.915</ele>
        <time>2026-04-30T04:20:20.827808833Z</time>
      </trkpt>
      <trkpt lat="38.932812" lon="-9.263419">
        <ele>277.920</ele>
        <time>2026-04-30T04:20:40.827812420Z</time>
      </trkpt>
      <trkpt lat="38.932726" lon="-9.262864">
        <ele>274.497</ele>
        <time>2026-04-30T04:21:00.827815195Z</time>
      </trkpt>
      <trkpt lat="38.932792" lon="-9.262389">
        <ele>272.294</ele>
        <time>2026-04-30T04:21:20.827817830Z</time>
      </trkpt>
      <trkpt lat="38.932832" lon="-9.262007">
        <ele>272.381</ele>
        <time>2026-04-30T04:21:40.827820565Z</time>
      </trkpt>
      <trkpt lat="38.932932" lon="-9.261637">
        <ele>269.693</ele>
        <time>2026-04-30T04:22:00.827823220Z</time>
      </trkpt>
      <trkpt lat="38.933152" lon="-9.261392">
        <ele>265.138</ele>
        <time>2026-04-30T04:22:20.827825925Z</time>
      </trkpt>
      <trkpt lat="38.933249" lon="-9.261271">
        <ele>262.244</ele>
        <time>2026-04-30T04:22:40.827833129Z</time>
      </trkpt>
      <trkpt lat="38.933514" lon="-9.261061">
        <ele>259.417</ele>
        <time>2026-04-30T04:23:00.827835914Z</time>
      </trkpt>
      <trkpt lat="38.933645" lon="-9.260976">
        <ele>258.287</ele>
        <time>2026-04-30T04:23:20.827838599Z</time>
      </trkpt>
      <trkpt lat="38.934425" lon="-9.260878">
        <ele>255.315</ele>
        <time>2026-04-30T04:23:40.827841294Z</time>
      </trkpt>
      <trkpt lat="38.934823" lon="-9.260864">
        <ele>254.809</ele>
        <time>2026-04-30T04:24:00.827843969Z</time>
      </trkpt>
      <trkpt lat="38.935111" lon="-9.260777">
        <ele>255.563</ele>
        <time>2026-04-30T04:24:20.827846604Z</time>
      </trkpt>
      <trkpt lat="38.935583" lon="-9.260655">
        <ele>259.457</ele>
        <time>2026-04-30T04:24:40.827849339Z</time>
      </trkpt>
      <trkpt lat="38.935958" lon="-9.260379">
        <ele>263.242</ele>
        <time>2026-04-30T04:25:00.827851964Z</time>
      </trkpt>
      <trkpt lat="38.936025" lon="-9.260202">
        <ele>265.659</ele>
        <time>2026-04-30T04:25:20.827854599Z</time>
      </trkpt>
      <trkpt lat="38.935943" lon="-9.259865">
        <ele>269.096</ele>
        <time>2026-04-30T04:25:40.827857244Z</time>
      </trkpt>
      <trkpt lat="38.935805" lon="-9.259459">
        <ele>269.593</ele>
        <time>2026-04-30T04:26:00.827859939Z</time>
      </trkpt>
      <trkpt lat="38.935735" lon="-9.259262">
        <ele>269.745</ele>
        <time>2026-04-30T04:26:20.827862594Z</time>
      </trkpt>
      <trkpt lat="38.935556" lon="-9.259165">
        <ele>267.090</ele>
        <time>2026-04-30T04:26:40.827865279Z</time>
      </trkpt>
      <trkpt lat="38.935394" lon="-9.258945">
        <ele>265.466</ele>
        <time>2026-04-30T04:27:00.827867964Z</time>
      </trkpt>
      <trkpt lat="38.935372" lon="-9.258724">
        <ele>266.938</ele>
        <time>2026-04-30T04:27:20.827870729Z</time>
      </trkpt>
      <trkpt lat="38.935433" lon="-9.258406">
        <ele>270.270</ele>
        <time>2026-04-30T04:27:40.827873434Z</time>
      </trkpt>
      <trkpt lat="38.935537" lon="-9.258194">
        <ele>271.117</ele>
        <time>2026-04-30T04:28:00.827876099Z</time>
      </trkpt>
      <trkpt lat="38.935656" lon="-9.258041">
        <ele>271.009</ele>
        <time>2026-04-30T04:28:20.827878744Z</time>
      </trkpt>
      <trkpt lat="38.935518" lon="-9.257617">
        <ele>269.345</ele>
        <time>2026-04-30T04:28:40.827881389Z</time>
      </trkpt>
      <trkpt lat="38.935157" lon="-9.256526">
        <ele>260.989</ele>
        <time>2026-04-30T04:29:00.827884004Z</time>
      </trkpt>
      <trkpt lat="38.935042" lon="-9.256249">
        <ele>257.624</ele>
        <time>2026-04-30T04:29:20.827886699Z</time>
      </trkpt>
      <trkpt lat="38.934984" lon="-9.256108">
        <ele>256.771</ele>
        <time>2026-04-30T04:29:40.827889344Z</time>
      </trkpt>
      <trkpt lat="38.934657" lon="-9.255834">
        <ele>253.348</ele>
        <time>2026-04-30T04:30:00.827891999Z</time>
      </trkpt>
      <trkpt lat="38.934458" lon="-9.255627">
        <ele>250.485</ele>
        <time>2026-04-30T04:30:20.827894694Z</time>
      </trkpt>
      <trkpt lat="38.934356" lon="-9.255517">
        <ele>249.087</ele>
        <time>2026-04-30T04:30:40.827897359Z</time>
      </trkpt>
      <trkpt lat="38.934353" lon="-9.255731">
        <ele>250.242</ele>
        <time>2026-04-30T04:31:00.827900054Z</time>
      </trkpt>
      <trkpt lat="38.934372" lon="-9.256053">
        <ele>251.368</ele>
        <time>2026-04-30T04:31:20.827902759Z</time>
      </trkpt>
      <trkpt lat="38.934405" lon="-9.256232">
        <ele>251.837</ele>
        <time>2026-04-30T04:31:40.827905524Z</time>
      </trkpt>
      <trkpt lat="38.934652" lon="-9.256530">
        <ele>252.449</ele>
        <time>2026-04-30T04:32:00.827908219Z</time>
      </trkpt>
      <trkpt lat="38.934833" lon="-9.256750">
        <ele>256.213</ele>
        <time>2026-04-30T04:32:20.827910934Z</time>
      </trkpt>
      <trkpt lat="38.934882" lon="-9.256958">
        <ele>259.109</ele>
        <time>2026-04-30T04:32:40.827913599Z</time>
      </trkpt>
      <trkpt lat="38.934827" lon="-9.257220">
        <ele>262.735</ele>
        <time>2026-04-30T04:33:00.827916294Z</time>
      </trkpt>
      <trkpt lat="38.934699" lon="-9.257407">
        <ele>263.089</ele>
        <time>2026-04-30T04:33:20.827918979Z</time>
      </trkpt>
      <trkpt lat="38.934554" lon="-9.257514">
        <ele>262.294</ele>
        <time>2026-04-30T04:33:40.827921704Z</time>
      </trkpt>
      <trkpt lat="38.934389" lon="-9.257491">
        <ele>260.431</ele>
        <time>2026-04-30T04:34:00.827924379Z</time>
      </trkpt>
      <trkpt lat="38.934264" lon="-9.257399">
        <ele>258.128</ele>
        <time>2026-04-30T04:34:20.827927094Z</time>
      </trkpt>
      <trkpt lat="38.934028" lon="-9.257134">
        <ele>253.685</ele>
        <time>2026-04-30T04:34:40.827929739Z</time>
      </trkpt>
    </trkseg>
  </trk></gpx>